ABW8891 UHMA-USTR
Flight info
| Callsign | ABW8891 |
|---|---|
| Flight time | 6h 35m |
| Altitude | 38000 |
| Route | UHMA TOMRI G7 PEKOL/K0896F400 G7 GIKSI B954 ARKAT N866 HTG W27 OSVOD R717 LUNEP T797 NERUG USTR |
| Aircraft | B77L/H-SDE2E3FGHIJ5LORVWXY/LB1D1 |
Departure
| Time | 2026-05-07 07:12 |
|---|---|
| Airport | Ugolny Yuri Ryktheu Airport (UHMA) |
Arrival
| Time | 2026-05-07 13:48 |
|---|---|
| Airport | Roshchino International Airport (USTR) |
| Time | Latitude | Longitude | Altitude | Speed | Heading |
|---|---|---|---|---|---|
| 2026-05-07 06:18 | 64.71484 | 177.73607 | 137 ft | 0 kts | 92° |
| 2026-05-07 07:00 | 64.71484 | 177.73622 | 137 ft | 3 kts | 91° |
| 2026-05-07 07:01 | 64.71502 | 177.73688 | 136 ft | 6 kts | 36° |
| 2026-05-07 07:01 | 64.71541 | 177.73747 | 136 ft | 7 kts | 32° |
| 2026-05-07 07:01 | 64.71589 | 177.73791 | 137 ft | 7 kts | 7° |
| 2026-05-07 07:01 | 64.71629 | 177.73759 | 140 ft | 5 kts | 325° |
| 2026-05-07 07:02 | 64.71658 | 177.73709 | 142 ft | 5 kts | 321° |
| 2026-05-07 07:02 | 64.71690 | 177.73647 | 144 ft | 7 kts | 320° |
| 2026-05-07 07:02 | 64.71741 | 177.73547 | 145 ft | 11 kts | 323° |
| 2026-05-07 07:02 | 64.71816 | 177.73454 | 146 ft | 8 kts | 336° |
| 2026-05-07 07:03 | 64.71820 | 177.73450 | 146 ft | 0 kts | 335° |
| 2026-05-07 07:03 | 64.71826 | 177.73444 | 146 ft | 2 kts | 335° |
| 2026-05-07 07:03 | 64.71856 | 177.73412 | 147 ft | 6 kts | 335° |
| 2026-05-07 07:04 | 64.71905 | 177.73357 | 148 ft | 9 kts | 335° |
| 2026-05-07 07:04 | 64.71977 | 177.73351 | 149 ft | 11 kts | 11° |
| 2026-05-07 07:04 | 64.72066 | 177.73320 | 150 ft | 14 kts | 345° |
| 2026-05-07 07:04 | 64.72176 | 177.73341 | 150 ft | 17 kts | 16° |
| 2026-05-07 07:05 | 64.72304 | 177.73421 | 150 ft | 20 kts | 15° |
| 2026-05-07 07:05 | 64.72451 | 177.73511 | 150 ft | 22 kts | 15° |
| 2026-05-07 07:05 | 64.72611 | 177.73610 | 150 ft | 25 kts | 15° |
| 2026-05-07 07:05 | 64.72787 | 177.73717 | 150 ft | 27 kts | 15° |
| 2026-05-07 07:06 | 64.72974 | 177.73833 | 152 ft | 28 kts | 15° |
| 2026-05-07 07:06 | 64.73171 | 177.73953 | 153 ft | 30 kts | 15° |
| 2026-05-07 07:06 | 64.73372 | 177.74078 | 156 ft | 30 kts | 15° |
| 2026-05-07 07:06 | 64.73580 | 177.74205 | 158 ft | 30 kts | 15° |
| 2026-05-07 07:07 | 64.73789 | 177.74335 | 162 ft | 31 kts | 14° |
| 2026-05-07 07:07 | 64.73994 | 177.74461 | 166 ft | 31 kts | 15° |
| 2026-05-07 07:07 | 64.74206 | 177.74591 | 169 ft | 31 kts | 15° |
| 2026-05-07 07:07 | 64.74415 | 177.74721 | 173 ft | 31 kts | 15° |
| 2026-05-07 07:08 | 64.74627 | 177.74850 | 179 ft | 30 kts | 15° |
| 2026-05-07 07:08 | 64.74827 | 177.74976 | 185 ft | 17 kts | 15° |
| 2026-05-07 07:08 | 64.74903 | 177.75017 | 188 ft | 10 kts | 4° |
| 2026-05-07 07:08 | 64.74972 | 177.75003 | 191 ft | 9 kts | 359° |
| 2026-05-07 07:09 | 64.74999 | 177.75038 | 192 ft | 4 kts | 52° |
| 2026-05-07 07:09 | 64.74997 | 177.75096 | 192 ft | 4 kts | 128° |
| 2026-05-07 07:09 | 64.74954 | 177.75098 | 190 ft | 9 kts | 200° |
| 2026-05-07 07:09 | 64.74883 | 177.75015 | 188 ft | 13 kts | 200° |
| 2026-05-07 07:10 | 64.74842 | 177.74986 | 186 ft | 0 kts | 195° |
| 2026-05-07 07:11 | 64.74839 | 177.74985 | 186 ft | 2 kts | 195° |
| 2026-05-07 07:11 | 64.74768 | 177.74940 | 182 ft | 24 kts | 195° |
| 2026-05-07 07:11 | 64.74345 | 177.74680 | 173 ft | 100 kts | 194° |
| 2026-05-07 07:12 | 64.73468 | 177.74133 | 171 ft | 159 kts | 195° |
| 2026-05-07 07:12 | 64.72349 | 177.73425 | 659 ft | 172 kts | 193° |
| 2026-05-07 07:12 | 64.71195 | 177.72813 | 1614 ft | 170 kts | 192° |
| 2026-05-07 07:12 | 64.70164 | 177.71521 | 2356 ft | 182 kts | 223° |
| 2026-05-07 07:13 | 64.69517 | 177.68803 | 3027 ft | 204 kts | 261° |
| 2026-05-07 07:13 | 64.69688 | 177.65529 | 3752 ft | 213 kts | 297° |
| 2026-05-07 07:13 | 64.70592 | 177.62683 | 4030 ft | 227 kts | 313° |
| 2026-05-07 07:13 | 64.71678 | 177.59900 | 4302 ft | 242 kts | 314° |
| 2026-05-07 07:14 | 64.72826 | 177.56976 | 4523 ft | 258 kts | 314° |
| 2026-05-07 07:14 | 64.74032 | 177.53902 | 4919 ft | 264 kts | 314° |
| 2026-05-07 07:14 | 64.75253 | 177.50783 | 5401 ft | 267 kts | 314° |
| 2026-05-07 07:14 | 64.76473 | 177.47659 | 5907 ft | 268 kts | 314° |
| 2026-05-07 07:15 | 64.77702 | 177.44511 | 6385 ft | 269 kts | 314° |
| 2026-05-07 07:15 | 64.78960 | 177.41283 | 6905 ft | 269 kts | 314° |
| 2026-05-07 07:15 | 64.80209 | 177.38072 | 7328 ft | 274 kts | 314° |
| 2026-05-07 07:15 | 64.81453 | 177.34872 | 7814 ft | 275 kts | 313° |
| 2026-05-07 07:16 | 64.82659 | 177.31764 | 8245 ft | 277 kts | 313° |
| 2026-05-07 07:16 | 64.84018 | 177.28256 | 8723 ft | 278 kts | 314° |
| 2026-05-07 07:16 | 64.85310 | 177.24916 | 9208 ft | 279 kts | 314° |
| 2026-05-07 07:16 | 64.86628 | 177.21503 | 9625 ft | 281 kts | 314° |
| 2026-05-07 07:17 | 64.87909 | 177.18181 | 10074 ft | 282 kts | 314° |
| 2026-05-07 07:17 | 64.89239 | 177.14728 | 10333 ft | 291 kts | 314° |
| 2026-05-07 07:17 | 64.90597 | 177.11197 | 10381 ft | 306 kts | 314° |
| 2026-05-07 07:17 | 64.92034 | 177.07459 | 10388 ft | 320 kts | 314° |
| 2026-05-07 07:18 | 64.93523 | 177.03575 | 10393 ft | 333 kts | 313° |
| 2026-05-07 07:18 | 64.95070 | 176.99530 | 10398 ft | 344 kts | 313° |
| 2026-05-07 07:18 | 64.96661 | 176.95364 | 10402 ft | 354 kts | 313° |
| 2026-05-07 07:18 | 64.98300 | 176.91060 | 10469 ft | 360 kts | 313° |
| 2026-05-07 07:19 | 64.99957 | 176.86699 | 10681 ft | 362 kts | 313° |
| 2026-05-07 07:19 | 65.01508 | 176.82611 | 10901 ft | 363 kts | 313° |
| 2026-05-07 07:19 | 65.03039 | 176.78564 | 11145 ft | 363 kts | 313° |
| 2026-05-07 07:19 | 65.04342 | 176.75117 | 11339 ft | 364 kts | 313° |
| 2026-05-07 07:20 | 65.06171 | 176.70268 | 11624 ft | 366 kts | 313° |
| 2026-05-07 07:20 | 65.07858 | 176.65784 | 11913 ft | 367 kts | 313° |
| 2026-05-07 07:20 | 65.09557 | 176.61259 | 12205 ft | 369 kts | 313° |
| 2026-05-07 07:20 | 65.11275 | 176.56677 | 12506 ft | 371 kts | 313° |
| 2026-05-07 07:21 | 65.12972 | 176.52139 | 12821 ft | 373 kts | 313° |
| 2026-05-07 07:21 | 65.14716 | 176.47466 | 13159 ft | 375 kts | 313° |
| 2026-05-07 07:21 | 65.16435 | 176.42850 | 13506 ft | 377 kts | 313° |
| 2026-05-07 07:21 | 65.18173 | 176.38174 | 13873 ft | 379 kts | 313° |
| 2026-05-07 07:22 | 65.19919 | 176.33466 | 14255 ft | 382 kts | 312° |
| 2026-05-07 07:22 | 65.21678 | 176.28711 | 14653 ft | 385 kts | 312° |
| 2026-05-07 07:22 | 65.23425 | 176.23912 | 15064 ft | 388 kts | 310° |
| 2026-05-07 07:22 | 65.25079 | 176.18860 | 15485 ft | 391 kts | 308° |
| 2026-05-07 07:23 | 65.26702 | 176.13811 | 15912 ft | 394 kts | 308° |
| 2026-05-07 07:23 | 65.28375 | 176.08589 | 16351 ft | 397 kts | 308° |
| 2026-05-07 07:23 | 65.30021 | 176.03444 | 16770 ft | 400 kts | 308° |
| 2026-05-07 07:23 | 65.31722 | 175.98111 | 17198 ft | 403 kts | 308° |
| 2026-05-07 07:24 | 65.33426 | 175.92761 | 17622 ft | 406 kts | 308° |
| 2026-05-07 07:24 | 65.35133 | 175.87387 | 18042 ft | 409 kts | 308° |
| 2026-05-07 07:24 | 65.36860 | 175.81940 | 18461 ft | 412 kts | 308° |
| 2026-05-07 07:24 | 65.38602 | 175.76427 | 18879 ft | 415 kts | 308° |
| 2026-05-07 07:25 | 65.42123 | 175.65248 | 19709 ft | 422 kts | 308° |
| 2026-05-07 07:25 | 65.43903 | 175.59578 | 20120 ft | 425 kts | 308° |
| 2026-05-07 07:25 | 65.45681 | 175.53897 | 20527 ft | 428 kts | 308° |
| 2026-05-07 07:26 | 65.47463 | 175.48190 | 20930 ft | 431 kts | 308° |
| 2026-05-07 07:26 | 65.49285 | 175.42335 | 21343 ft | 434 kts | 308° |
| 2026-05-07 07:26 | 65.51101 | 175.36488 | 21742 ft | 438 kts | 308° |
| 2026-05-07 07:26 | 65.52939 | 175.30554 | 22138 ft | 441 kts | 307° |
| 2026-05-07 07:27 | 65.54785 | 175.24596 | 22531 ft | 444 kts | 307° |
| 2026-05-07 07:27 | 65.56650 | 175.18568 | 22927 ft | 448 kts | 307° |
| 2026-05-07 07:27 | 65.58506 | 175.12553 | 23299 ft | 451 kts | 307° |
| 2026-05-07 07:27 | 65.60394 | 175.06415 | 23661 ft | 455 kts | 307° |
| 2026-05-07 07:28 | 65.62270 | 175.00302 | 24020 ft | 459 kts | 307° |
| 2026-05-07 07:28 | 65.64135 | 174.94209 | 24375 ft | 463 kts | 307° |
| 2026-05-07 07:28 | 65.66007 | 174.88075 | 24747 ft | 466 kts | 307° |
| 2026-05-07 07:28 | 65.67938 | 174.81726 | 25136 ft | 469 kts | 307° |
| 2026-05-07 07:29 | 65.69865 | 174.75374 | 25516 ft | 472 kts | 307° |
| 2026-05-07 07:29 | 65.71825 | 174.68896 | 25900 ft | 475 kts | 307° |
| 2026-05-07 07:29 | 65.73786 | 174.62393 | 26282 ft | 478 kts | 307° |
| 2026-05-07 07:29 | 65.75740 | 174.55896 | 26659 ft | 481 kts | 307° |
| 2026-05-07 07:30 | 65.77681 | 174.49295 | 27022 ft | 484 kts | 306° |
| 2026-05-07 07:30 | 65.79645 | 174.42505 | 27391 ft | 488 kts | 306° |
| 2026-05-07 07:30 | 65.81587 | 174.35770 | 27755 ft | 490 kts | 306° |
| 2026-05-07 07:30 | 65.83555 | 174.28929 | 28112 ft | 493 kts | 304° |
| 2026-05-07 07:31 | 65.85529 | 174.22049 | 28462 ft | 496 kts | 304° |
| 2026-05-07 07:31 | 65.87483 | 174.15219 | 28809 ft | 499 kts | 304° |
| 2026-05-07 07:31 | 65.89469 | 174.08258 | 29159 ft | 502 kts | 304° |
| 2026-05-07 07:31 | 65.91478 | 174.01196 | 29508 ft | 504 kts | 304° |
| 2026-05-07 07:32 | 65.93488 | 173.94113 | 29926 ft | 505 kts | 304° |
| 2026-05-07 07:32 | 65.95465 | 173.87128 | 30453 ft | 503 kts | 304° |
| 2026-05-07 07:32 | 65.97456 | 173.80075 | 30985 ft | 501 kts | 304° |
| 2026-05-07 07:32 | 65.99410 | 173.73132 | 31473 ft | 500 kts | 303° |
| 2026-05-07 07:33 | 66.01374 | 173.66133 | 31948 ft | 499 kts | 303° |
| 2026-05-07 07:33 | 66.03313 | 173.59203 | 32422 ft | 498 kts | 303° |
| 2026-05-07 07:33 | 66.05287 | 173.52119 | 32918 ft | 496 kts | 303° |
| 2026-05-07 07:33 | 66.07221 | 173.45160 | 33412 ft | 494 kts | 303° |
| 2026-05-07 07:34 | 66.09158 | 173.38170 | 33894 ft | 493 kts | 303° |
| 2026-05-07 07:34 | 66.11077 | 173.31229 | 34355 ft | 491 kts | 302° |
| 2026-05-07 07:34 | 66.13004 | 173.24249 | 34751 ft | 491 kts | 302° |
| 2026-05-07 07:34 | 66.14922 | 173.17299 | 35121 ft | 491 kts | 302° |
| 2026-05-07 07:35 | 66.16843 | 173.10387 | 35514 ft | 491 kts | 302° |
| 2026-05-07 07:35 | 66.18785 | 173.03391 | 35902 ft | 490 kts | 302° |
| 2026-05-07 07:35 | 66.20683 | 172.96530 | 36300 ft | 488 kts | 302° |
| 2026-05-07 07:35 | 66.22596 | 172.89595 | 36760 ft | 485 kts | 302° |
| 2026-05-07 07:36 | 66.24479 | 172.82744 | 37181 ft | 481 kts | 302° |
| 2026-05-07 07:36 | 66.26358 | 172.75886 | 37539 ft | 479 kts | 302° |
| 2026-05-07 07:36 | 66.28209 | 172.69107 | 37770 ft | 479 kts | 302° |
| 2026-05-07 07:36 | 66.30086 | 172.62209 | 37939 ft | 481 kts | 302° |
| 2026-05-07 07:37 | 66.31962 | 172.55295 | 38130 ft | 482 kts | 302° |
| 2026-05-07 07:37 | 66.35681 | 172.41521 | 38201 ft | 482 kts | 302° |
| 2026-05-07 07:38 | 66.39384 | 172.27722 | 38202 ft | 480 kts | 301° |
| 2026-05-07 07:38 | 66.43053 | 172.13965 | 38202 ft | 481 kts | 301° |
| 2026-05-07 07:39 | 66.46675 | 172.00293 | 38202 ft | 481 kts | 301° |
| 2026-05-07 07:39 | 66.50351 | 171.86336 | 38203 ft | 481 kts | 301° |
| 2026-05-07 07:40 | 66.54005 | 171.72369 | 38203 ft | 481 kts | 301° |
| 2026-05-07 07:40 | 66.57654 | 171.58339 | 38203 ft | 481 kts | 301° |
| 2026-05-07 07:41 | 66.61296 | 171.44243 | 38203 ft | 481 kts | 301° |
| 2026-05-07 07:41 | 66.64899 | 171.30209 | 38203 ft | 481 kts | 301° |
| 2026-05-07 07:42 | 66.68521 | 171.16010 | 38204 ft | 481 kts | 301° |
| 2026-05-07 07:42 | 66.72115 | 171.01829 | 38203 ft | 479 kts | 301° |
| 2026-05-07 07:43 | 66.75671 | 170.87828 | 38203 ft | 475 kts | 301° |
| 2026-05-07 07:43 | 66.79230 | 170.73784 | 38204 ft | 475 kts | 301° |
| 2026-05-07 07:44 | 66.82790 | 170.59641 | 38203 ft | 475 kts | 301° |
| 2026-05-07 07:44 | 66.86318 | 170.45532 | 38204 ft | 475 kts | 301° |
| 2026-05-07 07:45 | 66.89825 | 170.31418 | 38204 ft | 475 kts | 300° |
| 2026-05-07 07:45 | 66.93360 | 170.17154 | 38204 ft | 475 kts | 300° |
| 2026-05-07 07:46 | 66.96882 | 170.02849 | 38204 ft | 475 kts | 300° |
| 2026-05-07 07:46 | 67.00362 | 169.88619 | 38204 ft | 475 kts | 300° |
| 2026-05-07 07:47 | 67.03846 | 169.74280 | 38204 ft | 475 kts | 300° |
| 2026-05-07 07:47 | 67.07338 | 169.59811 | 38204 ft | 475 kts | 300° |
| 2026-05-07 07:48 | 67.10780 | 169.45456 | 38202 ft | 475 kts | 300° |
| 2026-05-07 07:48 | 67.14219 | 169.31017 | 38202 ft | 475 kts | 300° |
| 2026-05-07 07:49 | 67.17641 | 169.16551 | 38202 ft | 475 kts | 300° |
| 2026-05-07 07:49 | 67.21057 | 169.02017 | 38202 ft | 472 kts | 300° |
| 2026-05-07 07:50 | 67.24435 | 168.87595 | 38202 ft | 470 kts | 300° |
| 2026-05-07 07:50 | 67.27818 | 168.73062 | 38202 ft | 471 kts | 300° |
| 2026-05-07 07:51 | 67.31179 | 168.58522 | 38202 ft | 471 kts | 300° |
| 2026-05-07 07:51 | 67.34513 | 168.44002 | 38202 ft | 471 kts | 300° |
| 2026-05-07 07:52 | 67.37850 | 168.29369 | 38202 ft | 470 kts | 298° |
| 2026-05-07 07:52 | 67.41164 | 168.14739 | 38203 ft | 471 kts | 298° |
| 2026-05-07 07:53 | 67.44460 | 168.00090 | 38202 ft | 471 kts | 298° |
| 2026-05-07 07:53 | 67.47748 | 167.85378 | 38202 ft | 470 kts | 298° |
| 2026-05-07 07:54 | 67.51030 | 167.70590 | 38202 ft | 470 kts | 298° |
| 2026-05-07 07:54 | 67.54294 | 167.55785 | 38202 ft | 471 kts | 299° |
| 2026-05-07 07:55 | 67.57553 | 167.41000 | 38202 ft | 471 kts | 299° |
| 2026-05-07 07:55 | 67.60819 | 167.26096 | 38203 ft | 470 kts | 298° |
| 2026-05-07 07:56 | 67.64044 | 167.11269 | 38203 ft | 470 kts | 298° |
| 2026-05-07 07:56 | 67.67271 | 166.96332 | 38203 ft | 470 kts | 298° |
| 2026-05-07 07:57 | 67.70487 | 166.81339 | 38203 ft | 469 kts | 298° |
| 2026-05-07 07:57 | 67.73674 | 166.66376 | 38203 ft | 469 kts | 298° |
| 2026-05-07 07:58 | 67.76835 | 166.51430 | 38203 ft | 469 kts | 298° |
| 2026-05-07 07:58 | 67.80001 | 166.36353 | 38203 ft | 469 kts | 298° |
| 2026-05-07 07:59 | 67.83136 | 166.21318 | 38204 ft | 468 kts | 297° |
| 2026-05-07 07:59 | 67.86293 | 166.06113 | 38204 ft | 468 kts | 297° |
| 2026-05-07 08:00 | 67.89419 | 165.91049 | 38204 ft | 468 kts | 297° |
| 2026-05-07 08:00 | 67.92542 | 165.75885 | 38204 ft | 469 kts | 297° |
| 2026-05-07 08:01 | 67.95661 | 165.60634 | 38204 ft | 469 kts | 297° |
| 2026-05-07 08:01 | 67.98758 | 165.45373 | 38204 ft | 469 kts | 297° |
| 2026-05-07 08:02 | 68.01836 | 165.30096 | 38204 ft | 468 kts | 296° |
| 2026-05-07 08:02 | 68.04902 | 165.14769 | 38204 ft | 469 kts | 296° |
| 2026-05-07 08:03 | 68.07951 | 164.99416 | 38207 ft | 467 kts | 296° |
| 2026-05-07 08:03 | 68.10981 | 164.84045 | 38202 ft | 465 kts | 296° |
| 2026-05-07 08:04 | 68.13983 | 164.68701 | 38199 ft | 466 kts | 296° |
| 2026-05-07 08:04 | 68.16969 | 164.53366 | 38203 ft | 467 kts | 296° |
| 2026-05-07 08:05 | 68.19974 | 164.37842 | 38201 ft | 465 kts | 296° |
| 2026-05-07 08:05 | 68.22938 | 164.22383 | 38203 ft | 466 kts | 295° |
| 2026-05-07 08:06 | 68.25864 | 164.06947 | 38200 ft | 466 kts | 295° |
| 2026-05-07 08:06 | 68.28791 | 163.91388 | 38201 ft | 466 kts | 295° |
| 2026-05-07 08:07 | 68.31728 | 163.75659 | 38202 ft | 466 kts | 295° |
| 2026-05-07 08:07 | 68.34621 | 163.60054 | 38202 ft | 465 kts | 295° |
| 2026-05-07 08:08 | 68.37500 | 163.44398 | 38203 ft | 466 kts | 295° |
| 2026-05-07 08:08 | 68.40370 | 163.28677 | 38202 ft | 465 kts | 295° |
| 2026-05-07 08:09 | 68.43237 | 163.12846 | 38194 ft | 465 kts | 295° |
| 2026-05-07 08:09 | 68.44667 | 163.04907 | 38091 ft | 466 kts | 295° |
| 2026-05-07 08:09 | 68.46087 | 162.96994 | 37978 ft | 465 kts | 295° |
| 2026-05-07 08:10 | 68.48911 | 162.81158 | 37890 ft | 465 kts | 295° |
| 2026-05-07 08:10 | 68.51708 | 162.65355 | 37892 ft | 466 kts | 295° |
| 2026-05-07 08:11 | 68.54507 | 162.49409 | 37896 ft | 465 kts | 295° |
| 2026-05-07 08:11 | 68.57298 | 162.33391 | 37887 ft | 465 kts | 294° |
| 2026-05-07 08:12 | 68.60048 | 162.17453 | 37901 ft | 465 kts | 294° |
| 2026-05-07 08:12 | 68.62782 | 162.01346 | 37893 ft | 466 kts | 294° |
| 2026-05-07 08:13 | 68.65492 | 161.85255 | 37894 ft | 464 kts | 294° |
| 2026-05-07 08:13 | 68.68185 | 161.69144 | 37892 ft | 465 kts | 294° |
| 2026-05-07 08:14 | 68.70867 | 161.52957 | 37899 ft | 465 kts | 294° |
| 2026-05-07 08:14 | 68.73538 | 161.36714 | 37892 ft | 466 kts | 294° |
| 2026-05-07 08:15 | 68.76426 | 161.20708 | 37888 ft | 465 kts | 297° |
| 2026-05-07 08:15 | 68.79466 | 161.04993 | 37894 ft | 466 kts | 297° |
| 2026-05-07 08:16 | 68.82476 | 160.89217 | 37890 ft | 463 kts | 297° |
| 2026-05-07 08:16 | 68.85449 | 160.73453 | 37892 ft | 461 kts | 297° |
| 2026-05-07 08:17 | 68.88398 | 160.57661 | 37892 ft | 462 kts | 297° |
| 2026-05-07 08:17 | 68.91334 | 160.41783 | 37891 ft | 461 kts | 296° |
| 2026-05-07 08:18 | 68.94214 | 160.25774 | 37893 ft | 462 kts | 295° |
| 2026-05-07 08:18 | 68.97063 | 160.09798 | 37893 ft | 461 kts | 295° |
| 2026-05-07 08:19 | 68.99893 | 159.93810 | 37893 ft | 462 kts | 295° |
| 2026-05-07 08:19 | 69.02720 | 159.77722 | 37893 ft | 462 kts | 295° |
| 2026-05-07 08:20 | 69.05537 | 159.61556 | 37892 ft | 462 kts | 295° |
| 2026-05-07 08:20 | 69.08323 | 159.45451 | 37892 ft | 462 kts | 295° |
| 2026-05-07 08:21 | 69.11104 | 159.29244 | 37893 ft | 462 kts | 294° |
| 2026-05-07 08:21 | 69.13864 | 159.13025 | 37893 ft | 461 kts | 294° |
| 2026-05-07 08:22 | 69.16609 | 158.96762 | 37893 ft | 461 kts | 294° |
| 2026-05-07 08:22 | 69.19359 | 158.80342 | 37892 ft | 461 kts | 294° |
| 2026-05-07 08:23 | 69.22063 | 158.64061 | 37892 ft | 462 kts | 294° |
| 2026-05-07 08:23 | 69.24770 | 158.47626 | 37892 ft | 461 kts | 294° |
| 2026-05-07 08:24 | 69.27457 | 158.31239 | 37893 ft | 461 kts | 294° |
| 2026-05-07 08:24 | 69.30164 | 158.14705 | 37893 ft | 461 kts | 294° |
| 2026-05-07 08:25 | 69.32842 | 157.98210 | 37893 ft | 461 kts | 294° |
| 2026-05-07 08:25 | 69.35493 | 157.81746 | 37893 ft | 462 kts | 294° |
| 2026-05-07 08:26 | 69.39479 | 157.56775 | 37892 ft | 461 kts | 294° |
| 2026-05-07 08:26 | 69.42107 | 157.40289 | 37892 ft | 462 kts | 294° |
| 2026-05-07 08:27 | 69.44745 | 157.23596 | 37893 ft | 461 kts | 293° |
| 2026-05-07 08:27 | 69.47365 | 157.06865 | 37893 ft | 460 kts | 293° |
| 2026-05-07 08:28 | 69.49936 | 156.90309 | 37892 ft | 459 kts | 293° |
| 2026-05-07 08:28 | 69.52519 | 156.73524 | 37892 ft | 459 kts | 293° |
| 2026-05-07 08:29 | 69.55069 | 156.56815 | 37892 ft | 459 kts | 293° |
| 2026-05-07 08:29 | 69.57607 | 156.40034 | 37892 ft | 459 kts | 293° |
| 2026-05-07 08:30 | 69.60123 | 156.23259 | 37893 ft | 459 kts | 292° |
| 2026-05-07 08:30 | 69.62622 | 156.06448 | 37893 ft | 459 kts | 292° |
| 2026-05-07 08:31 | 69.65116 | 155.89522 | 37893 ft | 459 kts | 292° |
| 2026-05-07 08:31 | 69.67580 | 155.72649 | 37892 ft | 459 kts | 292° |
| 2026-05-07 08:32 | 69.70049 | 155.55592 | 37892 ft | 459 kts | 292° |
| 2026-05-07 08:32 | 69.72471 | 155.38709 | 37892 ft | 459 kts | 292° |
| 2026-05-07 08:33 | 69.74894 | 155.21663 | 37893 ft | 459 kts | 291° |
| 2026-05-07 08:33 | 69.77307 | 155.04530 | 37893 ft | 459 kts | 291° |
| 2026-05-07 08:34 | 69.79700 | 154.87386 | 37893 ft | 458 kts | 291° |
| 2026-05-07 08:34 | 69.82057 | 154.70378 | 37892 ft | 457 kts | 291° |
| 2026-05-07 08:35 | 69.84427 | 154.53256 | 37892 ft | 458 kts | 291° |
| 2026-05-07 08:35 | 69.86775 | 154.36124 | 37889 ft | 457 kts | 291° |
| 2026-05-07 08:36 | 69.89107 | 154.18951 | 37891 ft | 458 kts | 290° |
| 2026-05-07 08:36 | 69.91421 | 154.01747 | 37891 ft | 458 kts | 290° |
| 2026-05-07 08:37 | 69.93724 | 153.84456 | 37891 ft | 458 kts | 290° |
| 2026-05-07 08:37 | 69.96017 | 153.67082 | 37892 ft | 458 kts | 290° |
| 2026-05-07 08:38 | 69.98280 | 153.49764 | 37893 ft | 458 kts | 290° |
| 2026-05-07 08:38 | 70.00526 | 153.32402 | 37891 ft | 458 kts | 289° |
| 2026-05-07 08:39 | 70.02757 | 153.14995 | 37891 ft | 458 kts | 289° |
| 2026-05-07 08:39 | 70.04987 | 152.97429 | 37893 ft | 457 kts | 290° |
| 2026-05-07 08:40 | 70.07175 | 152.80022 | 37888 ft | 456 kts | 290° |
| 2026-05-07 08:40 | 70.09354 | 152.62506 | 37890 ft | 456 kts | 290° |
| 2026-05-07 08:41 | 70.11504 | 152.45050 | 37892 ft | 456 kts | 290° |
| 2026-05-07 08:41 | 70.13641 | 152.27541 | 37891 ft | 457 kts | 289° |
| 2026-05-07 08:42 | 70.15855 | 152.10013 | 37890 ft | 457 kts | 290° |
| 2026-05-07 08:42 | 70.18076 | 151.92401 | 37895 ft | 456 kts | 290° |
| 2026-05-07 08:43 | 70.20254 | 151.74937 | 37890 ft | 456 kts | 290° |
| 2026-05-07 08:43 | 70.22430 | 151.57297 | 37889 ft | 457 kts | 290° |
| 2026-05-07 08:44 | 70.24590 | 151.39597 | 37892 ft | 456 kts | 290° |
| 2026-05-07 08:44 | 70.26723 | 151.21928 | 37894 ft | 456 kts | 289° |
| 2026-05-07 08:45 | 70.28838 | 151.04234 | 37894 ft | 456 kts | 289° |
| 2026-05-07 08:45 | 70.30942 | 150.86444 | 37896 ft | 456 kts | 289° |
| 2026-05-07 08:46 | 70.33022 | 150.68675 | 37889 ft | 456 kts | 289° |
| 2026-05-07 08:46 | 70.35088 | 150.50844 | 37887 ft | 456 kts | 289° |
| 2026-05-07 08:47 | 70.37131 | 150.33019 | 37889 ft | 456 kts | 288° |
| 2026-05-07 08:47 | 70.39165 | 150.15080 | 37894 ft | 456 kts | 288° |
| 2026-05-07 08:48 | 70.41166 | 149.97247 | 37896 ft | 455 kts | 288° |
| 2026-05-07 08:48 | 70.43156 | 149.79315 | 37897 ft | 457 kts | 288° |
| 2026-05-07 08:49 | 70.45139 | 149.61249 | 37895 ft | 457 kts | 288° |
| 2026-05-07 08:49 | 70.47092 | 149.43266 | 37886 ft | 456 kts | 288° |
| 2026-05-07 08:50 | 70.48996 | 149.25198 | 37896 ft | 457 kts | 287° |
| 2026-05-07 08:50 | 70.50879 | 149.07085 | 37893 ft | 456 kts | 287° |
| 2026-05-07 08:51 | 70.52750 | 148.88881 | 37893 ft | 456 kts | 287° |
| 2026-05-07 08:51 | 70.54607 | 148.70628 | 37895 ft | 455 kts | 287° |
| 2026-05-07 08:52 | 70.56429 | 148.52499 | 37894 ft | 456 kts | 287° |
| 2026-05-07 08:52 | 70.58242 | 148.34247 | 37890 ft | 455 kts | 286° |
| 2026-05-07 08:53 | 70.60039 | 148.15948 | 37895 ft | 457 kts | 286° |
| 2026-05-07 08:53 | 70.61809 | 147.97697 | 37891 ft | 455 kts | 286° |
| 2026-05-07 08:54 | 70.63605 | 147.79396 | 37887 ft | 455 kts | 287° |
| 2026-05-07 08:54 | 70.65450 | 147.61134 | 37894 ft | 454 kts | 287° |
| 2026-05-07 08:55 | 70.67277 | 147.42812 | 37896 ft | 456 kts | 287° |
| 2026-05-07 08:55 | 70.69084 | 147.24428 | 37893 ft | 454 kts | 286° |
| 2026-05-07 08:56 | 70.70857 | 147.06169 | 37892 ft | 455 kts | 286° |
| 2026-05-07 08:56 | 70.72633 | 146.87646 | 37890 ft | 456 kts | 286° |
| 2026-05-07 08:57 | 70.74370 | 146.69305 | 37889 ft | 454 kts | 286° |
| 2026-05-07 08:57 | 70.76090 | 146.50913 | 37894 ft | 455 kts | 286° |
| 2026-05-07 08:58 | 70.77805 | 146.32336 | 37890 ft | 454 kts | 285° |
| 2026-05-07 08:58 | 70.79468 | 146.13759 | 37892 ft | 456 kts | 285° |
| 2026-05-07 08:59 | 70.81097 | 145.95241 | 37893 ft | 455 kts | 285° |
| 2026-05-07 08:59 | 70.82715 | 145.76623 | 37894 ft | 455 kts | 285° |
| 2026-05-07 09:00 | 70.84310 | 145.58023 | 37891 ft | 455 kts | 285° |
| 2026-05-07 09:00 | 70.85894 | 145.39316 | 37892 ft | 455 kts | 285° |
| 2026-05-07 09:01 | 70.87447 | 145.20721 | 37892 ft | 455 kts | 284° |
| 2026-05-07 09:01 | 70.88991 | 145.01987 | 37891 ft | 455 kts | 284° |
| 2026-05-07 09:02 | 70.90525 | 144.83104 | 37892 ft | 456 kts | 284° |
| 2026-05-07 09:02 | 70.92032 | 144.64288 | 37891 ft | 456 kts | 284° |
| 2026-05-07 09:03 | 70.93520 | 144.45447 | 37891 ft | 456 kts | 284° |
| 2026-05-07 09:03 | 70.94985 | 144.26622 | 37892 ft | 456 kts | 283° |
| 2026-05-07 09:04 | 70.96435 | 144.07726 | 37892 ft | 456 kts | 283° |
| 2026-05-07 09:04 | 70.97871 | 143.88728 | 37892 ft | 456 kts | 283° |
| 2026-05-07 09:05 | 70.99300 | 143.69809 | 37892 ft | 456 kts | 284° |
| 2026-05-07 09:05 | 71.00777 | 143.50848 | 37891 ft | 456 kts | 284° |
| 2026-05-07 09:06 | 71.02227 | 143.31944 | 37891 ft | 456 kts | 283° |
| 2026-05-07 09:06 | 71.03661 | 143.12924 | 37892 ft | 456 kts | 283° |
| 2026-05-07 09:07 | 71.05070 | 142.93957 | 37891 ft | 456 kts | 283° |
| 2026-05-07 09:07 | 71.06473 | 142.74776 | 37892 ft | 458 kts | 283° |
| 2026-05-07 09:08 | 71.07843 | 142.55734 | 37891 ft | 457 kts | 283° |
| 2026-05-07 09:08 | 71.09203 | 142.36543 | 37891 ft | 457 kts | 283° |
| 2026-05-07 09:09 | 71.10537 | 142.17395 | 37908 ft | 457 kts | 282° |
| 2026-05-07 09:09 | 71.11856 | 141.98157 | 37914 ft | 457 kts | 282° |
| 2026-05-07 09:10 | 71.13152 | 141.78949 | 37914 ft | 457 kts | 282° |
| 2026-05-07 09:10 | 71.14426 | 141.59764 | 37913 ft | 457 kts | 282° |
| 2026-05-07 09:11 | 71.15687 | 141.40431 | 37913 ft | 457 kts | 282° |
| 2026-05-07 09:11 | 71.16921 | 141.21181 | 37900 ft | 457 kts | 281° |
| 2026-05-07 09:12 | 71.18137 | 141.01895 | 37873 ft | 458 kts | 281° |
| 2026-05-07 09:12 | 71.19344 | 140.82382 | 37872 ft | 461 kts | 281° |
| 2026-05-07 09:13 | 71.20531 | 140.62869 | 37872 ft | 460 kts | 281° |
| 2026-05-07 09:13 | 71.21696 | 140.43350 | 37871 ft | 460 kts | 281° |
| 2026-05-07 09:14 | 71.22835 | 140.23894 | 37873 ft | 460 kts | 280° |
| 2026-05-07 09:14 | 71.23960 | 140.04326 | 37872 ft | 460 kts | 280° |
| 2026-05-07 09:15 | 71.25066 | 139.84700 | 37872 ft | 460 kts | 280° |
| 2026-05-07 09:15 | 71.26153 | 139.65031 | 37872 ft | 460 kts | 280° |
| 2026-05-07 09:16 | 71.27216 | 139.45392 | 37871 ft | 460 kts | 280° |
| 2026-05-07 09:16 | 71.28259 | 139.25735 | 37872 ft | 460 kts | 279° |
| 2026-05-07 09:17 | 71.29275 | 139.06033 | 37872 ft | 460 kts | 279° |
| 2026-05-07 09:17 | 71.30260 | 138.86381 | 37870 ft | 459 kts | 279° |
| 2026-05-07 09:18 | 71.31226 | 138.66670 | 37872 ft | 459 kts | 279° |
| 2026-05-07 09:18 | 71.32169 | 138.47032 | 37872 ft | 459 kts | 279° |
| 2026-05-07 09:19 | 71.33096 | 138.27248 | 37872 ft | 459 kts | 278° |
| 2026-05-07 09:19 | 71.33994 | 138.07643 | 37872 ft | 459 kts | 278° |
| 2026-05-07 09:20 | 71.34879 | 137.87854 | 37873 ft | 459 kts | 278° |
| 2026-05-07 09:20 | 71.35746 | 137.67986 | 37873 ft | 459 kts | 278° |
| 2026-05-07 09:21 | 71.36585 | 137.48250 | 37873 ft | 459 kts | 278° |
| 2026-05-07 09:21 | 71.37412 | 137.28322 | 37872 ft | 459 kts | 277° |
| 2026-05-07 09:22 | 71.38209 | 137.08574 | 37873 ft | 459 kts | 277° |
| 2026-05-07 09:22 | 71.38989 | 136.88745 | 37874 ft | 459 kts | 277° |
| 2026-05-07 09:23 | 71.39747 | 136.68904 | 37872 ft | 458 kts | 277° |
| 2026-05-07 09:23 | 71.40485 | 136.49033 | 37870 ft | 458 kts | 277° |
| 2026-05-07 09:24 | 71.41199 | 136.29246 | 37873 ft | 457 kts | 276° |
| 2026-05-07 09:24 | 71.41905 | 136.09410 | 37870 ft | 457 kts | 278° |
| 2026-05-07 09:25 | 71.42996 | 135.89815 | 37874 ft | 457 kts | 281° |
| 2026-05-07 09:25 | 71.44091 | 135.70226 | 37871 ft | 457 kts | 280° |
| 2026-05-07 09:26 | 71.45155 | 135.50528 | 37870 ft | 457 kts | 280° |
| 2026-05-07 09:26 | 71.46188 | 135.30830 | 37871 ft | 458 kts | 279° |
| 2026-05-07 09:27 | 71.47206 | 135.10931 | 37873 ft | 458 kts | 279° |
| 2026-05-07 09:28 | 71.48680 | 134.81259 | 37872 ft | 458 kts | 279° |
| 2026-05-07 09:28 | 71.49635 | 134.61455 | 37871 ft | 457 kts | 279° |
| 2026-05-07 09:29 | 71.50571 | 134.41602 | 37871 ft | 458 kts | 279° |
| 2026-05-07 09:29 | 71.51484 | 134.21820 | 37872 ft | 458 kts | 278° |
| 2026-05-07 09:30 | 71.52435 | 134.01942 | 37872 ft | 458 kts | 278° |
| 2026-05-07 09:30 | 71.53366 | 133.82098 | 37871 ft | 457 kts | 278° |
| 2026-05-07 09:31 | 71.54274 | 133.62248 | 37871 ft | 458 kts | 278° |
| 2026-05-07 09:31 | 71.55162 | 133.42328 | 37871 ft | 457 kts | 278° |
| 2026-05-07 09:32 | 71.56027 | 133.22444 | 37872 ft | 458 kts | 277° |
| 2026-05-07 09:32 | 71.56874 | 133.02454 | 37872 ft | 457 kts | 277° |
| 2026-05-07 09:33 | 71.57694 | 132.82606 | 37872 ft | 458 kts | 277° |
| 2026-05-07 09:33 | 71.58502 | 132.62515 | 37871 ft | 458 kts | 277° |
| 2026-05-07 09:34 | 71.59283 | 132.42546 | 37871 ft | 458 kts | 277° |
| 2026-05-07 09:34 | 71.60047 | 132.22496 | 37872 ft | 458 kts | 276° |
| 2026-05-07 09:35 | 71.60787 | 132.02489 | 37872 ft | 458 kts | 276° |
| 2026-05-07 09:35 | 71.61506 | 131.82475 | 37872 ft | 458 kts | 276° |
| 2026-05-07 09:36 | 71.62204 | 131.62421 | 37871 ft | 458 kts | 276° |
| 2026-05-07 09:36 | 71.62882 | 131.42351 | 37871 ft | 458 kts | 276° |
| 2026-05-07 09:37 | 71.63535 | 131.22376 | 37872 ft | 458 kts | 275° |
| 2026-05-07 09:37 | 71.64170 | 131.02286 | 37872 ft | 458 kts | 276° |
| 2026-05-07 09:38 | 71.64786 | 130.82147 | 37871 ft | 457 kts | 276° |
| 2026-05-07 09:38 | 71.65378 | 130.62082 | 37871 ft | 456 kts | 276° |
| 2026-05-07 09:39 | 71.65947 | 130.42058 | 37871 ft | 456 kts | 276° |
| 2026-05-07 09:39 | 71.66499 | 130.21924 | 37872 ft | 456 kts | 275° |
| 2026-05-07 09:40 | 71.67026 | 130.01926 | 37872 ft | 456 kts | 275° |
| 2026-05-07 09:40 | 71.67535 | 129.81792 | 37871 ft | 456 kts | 275° |
| 2026-05-07 09:41 | 71.68021 | 129.61762 | 37871 ft | 456 kts | 275° |
| 2026-05-07 09:41 | 71.68489 | 129.41534 | 37871 ft | 456 kts | 275° |
| 2026-05-07 09:42 | 71.68932 | 129.21536 | 37872 ft | 456 kts | 274° |
| 2026-05-07 09:42 | 71.69357 | 129.01335 | 37872 ft | 456 kts | 274° |
| 2026-05-07 09:43 | 71.69878 | 128.81178 | 37871 ft | 456 kts | 279° |
| 2026-05-07 09:43 | 71.70972 | 128.61380 | 37871 ft | 456 kts | 280° |
| 2026-05-07 09:44 | 71.72035 | 128.41447 | 37871 ft | 456 kts | 280° |
| 2026-05-07 09:44 | 71.73051 | 128.21515 | 37872 ft | 456 kts | 279° |
| 2026-05-07 09:45 | 71.74039 | 128.01476 | 37872 ft | 456 kts | 279° |
| 2026-05-07 09:45 | 71.74992 | 127.81524 | 37871 ft | 456 kts | 279° |
| 2026-05-07 09:46 | 71.75924 | 127.61513 | 37871 ft | 456 kts | 279° |
| 2026-05-07 09:46 | 71.76833 | 127.41478 | 37871 ft | 456 kts | 279° |
| 2026-05-07 09:47 | 71.77718 | 127.21440 | 37872 ft | 456 kts | 278° |
| 2026-05-07 09:47 | 71.78583 | 127.01374 | 37872 ft | 458 kts | 278° |
| 2026-05-07 09:48 | 71.79433 | 126.81130 | 37871 ft | 459 kts | 278° |
| 2026-05-07 09:48 | 71.80262 | 126.60867 | 37871 ft | 459 kts | 278° |
| 2026-05-07 09:49 | 71.81067 | 126.40661 | 37871 ft | 459 kts | 278° |
| 2026-05-07 09:49 | 71.81850 | 126.20434 | 37872 ft | 459 kts | 277° |
| 2026-05-07 09:50 | 71.82618 | 126.00048 | 37871 ft | 459 kts | 277° |
| 2026-05-07 09:50 | 71.83359 | 125.79794 | 37871 ft | 459 kts | 277° |
| 2026-05-07 09:51 | 71.84079 | 125.59506 | 37871 ft | 459 kts | 277° |
| 2026-05-07 09:51 | 71.84779 | 125.39159 | 37871 ft | 459 kts | 277° |
| 2026-05-07 09:52 | 71.85459 | 125.18775 | 37871 ft | 459 kts | 276° |
| 2026-05-07 09:52 | 71.86118 | 124.98365 | 37870 ft | 459 kts | 276° |
| 2026-05-07 09:53 | 71.86755 | 124.77924 | 37871 ft | 466 kts | 276° |
| 2026-05-07 09:53 | 71.87381 | 124.57146 | 37870 ft | 466 kts | 276° |
| 2026-05-07 09:54 | 71.87983 | 124.36390 | 37871 ft | 465 kts | 276° |
| 2026-05-07 09:54 | 71.88559 | 124.15774 | 37871 ft | 466 kts | 276° |
| 2026-05-07 09:55 | 71.89117 | 123.94958 | 37871 ft | 465 kts | 276° |
| 2026-05-07 09:55 | 71.89652 | 123.74190 | 37871 ft | 465 kts | 276° |
| 2026-05-07 09:56 | 71.90166 | 123.53516 | 37870 ft | 465 kts | 276° |
| 2026-05-07 09:56 | 71.90776 | 123.32766 | 37871 ft | 465 kts | 276° |
| 2026-05-07 09:57 | 71.91370 | 123.12118 | 37871 ft | 466 kts | 276° |
| 2026-05-07 09:57 | 71.91945 | 122.91232 | 37872 ft | 471 kts | 276° |
| 2026-05-07 09:58 | 71.92499 | 122.70192 | 37852 ft | 472 kts | 276° |
| 2026-05-07 09:58 | 71.93028 | 122.49136 | 37830 ft | 471 kts | 276° |
| 2026-05-07 09:59 | 71.93535 | 122.28055 | 37829 ft | 471 kts | 275° |
| 2026-05-07 09:59 | 71.94016 | 122.07071 | 37829 ft | 471 kts | 275° |
| 2026-05-07 10:00 | 71.94475 | 121.86057 | 37829 ft | 471 kts | 275° |
| 2026-05-07 10:00 | 71.94910 | 121.65054 | 37829 ft | 471 kts | 275° |
| 2026-05-07 10:01 | 71.95325 | 121.43948 | 37829 ft | 471 kts | 275° |
| 2026-05-07 10:01 | 71.95715 | 121.22870 | 37829 ft | 472 kts | 274° |
| 2026-05-07 10:02 | 71.96083 | 121.01793 | 37829 ft | 473 kts | 274° |
| 2026-05-07 10:02 | 71.96433 | 120.80450 | 37829 ft | 474 kts | 274° |
| 2026-05-07 10:03 | 71.96755 | 120.59302 | 37829 ft | 474 kts | 274° |
| 2026-05-07 10:03 | 71.97055 | 120.38126 | 37829 ft | 474 kts | 274° |
| 2026-05-07 10:04 | 71.97334 | 120.16839 | 37829 ft | 474 kts | 273° |
| 2026-05-07 10:04 | 71.97587 | 119.95688 | 37829 ft | 474 kts | 273° |
| 2026-05-07 10:05 | 71.97819 | 119.74421 | 37829 ft | 474 kts | 273° |
| 2026-05-07 10:05 | 71.98027 | 119.53088 | 37829 ft | 474 kts | 273° |
| 2026-05-07 10:06 | 71.98212 | 119.31913 | 37829 ft | 474 kts | 272° |
| 2026-05-07 10:06 | 71.98373 | 119.10615 | 37829 ft | 474 kts | 272° |
| 2026-05-07 10:07 | 71.98512 | 118.89295 | 37829 ft | 475 kts | 272° |
| 2026-05-07 10:07 | 71.98628 | 118.67996 | 37829 ft | 476 kts | 272° |
| 2026-05-07 10:08 | 71.98721 | 118.46523 | 37829 ft | 476 kts | 272° |
| 2026-05-07 10:08 | 71.98792 | 118.25237 | 37828 ft | 476 kts | 271° |
| 2026-05-07 10:09 | 71.98839 | 118.03809 | 37828 ft | 476 kts | 271° |
| 2026-05-07 10:09 | 71.98863 | 117.82511 | 37829 ft | 476 kts | 271° |
| 2026-05-07 10:10 | 71.98864 | 117.61152 | 37930 ft | 476 kts | 271° |
| 2026-05-07 10:10 | 71.98885 | 117.39801 | 37933 ft | 476 kts | 272° |
| 2026-05-07 10:11 | 71.98918 | 117.18456 | 37933 ft | 476 kts | 271° |
| 2026-05-07 10:11 | 71.98926 | 116.96999 | 37933 ft | 478 kts | 271° |
| 2026-05-07 10:12 | 71.98907 | 116.75510 | 37932 ft | 480 kts | 272° |
| 2026-05-07 10:12 | 71.98865 | 116.53866 | 37932 ft | 480 kts | 272° |
| 2026-05-07 10:13 | 71.98798 | 116.32355 | 37932 ft | 480 kts | 271° |
| 2026-05-07 10:13 | 71.98707 | 116.10865 | 37932 ft | 480 kts | 271° |
| 2026-05-07 10:14 | 71.98592 | 115.89298 | 37932 ft | 480 kts | 271° |
| 2026-05-07 10:14 | 71.98453 | 115.67773 | 37932 ft | 480 kts | 271° |
| 2026-05-07 10:15 | 71.98290 | 115.46172 | 37933 ft | 480 kts | 271° |
| 2026-05-07 10:15 | 71.98106 | 115.24646 | 37932 ft | 480 kts | 270° |
| 2026-05-07 10:16 | 71.97898 | 115.03085 | 37932 ft | 484 kts | 270° |
| 2026-05-07 10:16 | 71.97664 | 114.81380 | 37931 ft | 486 kts | 270° |
| 2026-05-07 10:17 | 71.97405 | 114.59648 | 37932 ft | 485 kts | 270° |
| 2026-05-07 10:17 | 71.97120 | 114.37739 | 37932 ft | 485 kts | 270° |
| 2026-05-07 10:18 | 71.96815 | 114.16019 | 37929 ft | 485 kts | 270° |
| 2026-05-07 10:18 | 71.97224 | 113.94421 | 37932 ft | 483 kts | 278° |
| 2026-05-07 10:19 | 71.97858 | 113.72832 | 37932 ft | 483 kts | 278° |
| 2026-05-07 10:19 | 71.98460 | 113.51230 | 37932 ft | 483 kts | 278° |
| 2026-05-07 10:20 | 71.99034 | 113.29658 | 37931 ft | 483 kts | 277° |
| 2026-05-07 10:20 | 71.99582 | 113.08010 | 37931 ft | 483 kts | 277° |
| 2026-05-07 10:21 | 72.00104 | 112.86385 | 37931 ft | 486 kts | 278° |
| 2026-05-07 10:21 | 72.00607 | 112.64528 | 37930 ft | 487 kts | 278° |
| 2026-05-07 10:22 | 72.01083 | 112.42747 | 37931 ft | 486 kts | 278° |
| 2026-05-07 10:22 | 72.01537 | 112.20992 | 37930 ft | 487 kts | 277° |
| 2026-05-07 10:23 | 72.01964 | 111.99264 | 37930 ft | 487 kts | 277° |
| 2026-05-07 10:23 | 72.02391 | 111.77445 | 37930 ft | 487 kts | 277° |
| 2026-05-07 10:24 | 72.02800 | 111.55429 | 37931 ft | 487 kts | 277° |
| 2026-05-07 10:24 | 72.03181 | 111.33575 | 37931 ft | 487 kts | 276° |
| 2026-05-07 10:25 | 72.03535 | 111.11814 | 37930 ft | 488 kts | 276° |
| 2026-05-07 10:25 | 72.03868 | 110.89819 | 37930 ft | 492 kts | 277° |
| 2026-05-07 10:26 | 72.04179 | 110.67665 | 37929 ft | 493 kts | 277° |
| 2026-05-07 10:26 | 72.04463 | 110.45437 | 37930 ft | 492 kts | 277° |
| 2026-05-07 10:27 | 72.04723 | 110.23253 | 37929 ft | 494 kts | 276° |
| 2026-05-07 10:27 | 72.04959 | 110.00942 | 37928 ft | 494 kts | 276° |
| 2026-05-07 10:28 | 72.05167 | 109.78807 | 37929 ft | 494 kts | 276° |
| 2026-05-07 10:28 | 72.05352 | 109.56576 | 37929 ft | 494 kts | 276° |
| 2026-05-07 10:29 | 72.05511 | 109.34353 | 37930 ft | 494 kts | 275° |
| 2026-05-07 10:29 | 72.05646 | 109.11948 | 37926 ft | 497 kts | 276° |
| 2026-05-07 10:30 | 72.05803 | 108.78030 | 37927 ft | 509 kts | 277° |
| 2026-05-07 10:30 | 72.05873 | 108.54995 | 37927 ft | 508 kts | 277° |
| 2026-05-07 10:31 | 72.05917 | 108.32150 | 37927 ft | 508 kts | 276° |
| 2026-05-07 10:31 | 72.05934 | 108.09211 | 37925 ft | 510 kts | 276° |
| 2026-05-07 10:32 | 72.05924 | 107.86249 | 37926 ft | 510 kts | 276° |
| 2026-05-07 10:32 | 72.05888 | 107.63354 | 37927 ft | 510 kts | 276° |
| 2026-05-07 10:33 | 72.05824 | 107.40242 | 37928 ft | 510 kts | 276° |
| 2026-05-07 10:33 | 72.05734 | 107.17272 | 37926 ft | 512 kts | 275° |
| 2026-05-07 10:34 | 72.05616 | 106.94199 | 37926 ft | 512 kts | 275° |
| 2026-05-07 10:34 | 72.05471 | 106.71133 | 37927 ft | 514 kts | 275° |
| 2026-05-07 10:35 | 72.05296 | 106.47867 | 37928 ft | 514 kts | 275° |
| 2026-05-07 10:35 | 72.05096 | 106.24805 | 37925 ft | 515 kts | 274° |
| 2026-05-07 10:36 | 72.04867 | 106.01500 | 37925 ft | 515 kts | 274° |
| 2026-05-07 10:36 | 72.04610 | 105.78336 | 37927 ft | 515 kts | 274° |
| 2026-05-07 10:37 | 72.04327 | 105.55187 | 37928 ft | 516 kts | 274° |
| 2026-05-07 10:37 | 72.04015 | 105.31938 | 37927 ft | 516 kts | 273° |
| 2026-05-07 10:38 | 72.03677 | 105.08785 | 37926 ft | 517 kts | 273° |
| 2026-05-07 10:38 | 72.03310 | 104.85650 | 37926 ft | 513 kts | 273° |
| 2026-05-07 10:39 | 72.02916 | 104.62490 | 37928 ft | 514 kts | 273° |
| 2026-05-07 10:39 | 72.02497 | 104.39462 | 37929 ft | 514 kts | 273° |
| 2026-05-07 10:40 | 72.02048 | 104.16293 | 37926 ft | 516 kts | 272° |
| 2026-05-07 10:40 | 72.01547 | 103.93229 | 37927 ft | 516 kts | 271° |
| 2026-05-07 10:41 | 72.00890 | 103.70015 | 37928 ft | 517 kts | 270° |
| 2026-05-07 10:41 | 72.00198 | 103.46887 | 37929 ft | 517 kts | 270° |
| 2026-05-07 10:42 | 71.99480 | 103.23878 | 37927 ft | 519 kts | 269° |
| 2026-05-07 10:42 | 71.98723 | 103.00591 | 37926 ft | 513 kts | 269° |
| 2026-05-07 10:43 | 71.97954 | 102.77810 | 37929 ft | 511 kts | 269° |
| 2026-05-07 10:43 | 71.97145 | 102.54974 | 37925 ft | 512 kts | 266° |
| 2026-05-07 10:44 | 71.95375 | 102.32519 | 37929 ft | 519 kts | 257° |
| 2026-05-07 10:44 | 71.93295 | 102.10301 | 37849 ft | 521 kts | 257° |
| 2026-05-07 10:45 | 71.92239 | 101.99191 | 37718 ft | 520 kts | 257° |
| 2026-05-07 10:45 | 71.91167 | 101.87992 | 37641 ft | 519 kts | 257° |
| 2026-05-07 10:45 | 71.89018 | 101.65788 | 37637 ft | 520 kts | 257° |
| 2026-05-07 10:46 | 71.86853 | 101.43742 | 37638 ft | 520 kts | 257° |
| 2026-05-07 10:46 | 71.84651 | 101.21635 | 37636 ft | 521 kts | 256° |
| 2026-05-07 10:47 | 71.82352 | 100.99522 | 37637 ft | 521 kts | 254° |
| 2026-05-07 10:47 | 71.79943 | 100.77797 | 37637 ft | 512 kts | 254° |
| 2026-05-07 10:48 | 71.77552 | 100.56449 | 37640 ft | 513 kts | 254° |
| 2026-05-07 10:48 | 71.75117 | 100.34927 | 37640 ft | 513 kts | 253° |
| 2026-05-07 10:49 | 71.72677 | 100.13614 | 37638 ft | 514 kts | 253° |
| 2026-05-07 10:49 | 71.70190 | 99.92152 | 37639 ft | 514 kts | 253° |
| 2026-05-07 10:50 | 71.67690 | 99.70814 | 37640 ft | 514 kts | 253° |
| 2026-05-07 10:50 | 71.65181 | 99.49673 | 37641 ft | 514 kts | 253° |
| 2026-05-07 10:51 | 71.62637 | 99.28473 | 37639 ft | 514 kts | 252° |
| 2026-05-07 10:51 | 71.60071 | 99.07346 | 37640 ft | 514 kts | 252° |
| 2026-05-07 10:52 | 71.57498 | 98.86423 | 37640 ft | 503 kts | 252° |
| 2026-05-07 10:52 | 71.54939 | 98.65832 | 37642 ft | 504 kts | 252° |
| 2026-05-07 10:53 | 71.52361 | 98.45324 | 37642 ft | 503 kts | 252° |
| 2026-05-07 10:53 | 71.49751 | 98.24793 | 37641 ft | 504 kts | 251° |
| 2026-05-07 10:54 | 71.47124 | 98.04355 | 37641 ft | 504 kts | 251° |
| 2026-05-07 10:54 | 71.44483 | 97.84038 | 37642 ft | 504 kts | 251° |
| 2026-05-07 10:55 | 71.41800 | 97.63620 | 37643 ft | 504 kts | 251° |
| 2026-05-07 10:55 | 71.39103 | 97.43324 | 37644 ft | 504 kts | 251° |
| 2026-05-07 10:56 | 71.36388 | 97.23108 | 37642 ft | 505 kts | 250° |
| 2026-05-07 10:56 | 71.33655 | 97.02978 | 37642 ft | 500 kts | 250° |
| 2026-05-07 10:57 | 71.30937 | 96.83172 | 37644 ft | 496 kts | 250° |
| 2026-05-07 10:57 | 71.28188 | 96.63332 | 37644 ft | 497 kts | 250° |
| 2026-05-07 10:58 | 71.25433 | 96.43672 | 37644 ft | 497 kts | 249° |
| 2026-05-07 10:58 | 71.22652 | 96.24020 | 37644 ft | 497 kts | 249° |
| 2026-05-07 10:59 | 71.19852 | 96.04433 | 37644 ft | 497 kts | 249° |
| 2026-05-07 10:59 | 71.17017 | 95.84801 | 37644 ft | 497 kts | 248° |
| 2026-05-07 11:00 | 71.14172 | 95.65303 | 37645 ft | 497 kts | 248° |
| 2026-05-07 11:00 | 71.11298 | 95.45802 | 37646 ft | 497 kts | 248° |
| 2026-05-07 11:01 | 71.08413 | 95.26416 | 37645 ft | 498 kts | 248° |
| 2026-05-07 11:01 | 71.05505 | 95.07075 | 37645 ft | 498 kts | 247° |
| 2026-05-07 11:02 | 71.02573 | 94.87760 | 37645 ft | 494 kts | 247° |
| 2026-05-07 11:02 | 70.99674 | 94.68845 | 37646 ft | 490 kts | 247° |
| 2026-05-07 11:03 | 70.96639 | 94.49977 | 37649 ft | 492 kts | 243° |
| 2026-05-07 11:03 | 70.93173 | 94.31936 | 37646 ft | 493 kts | 240° |
| 2026-05-07 11:04 | 70.89658 | 94.14027 | 37644 ft | 493 kts | 240° |
| 2026-05-07 11:04 | 70.86091 | 93.96061 | 37638 ft | 493 kts | 240° |
| 2026-05-07 11:05 | 70.82520 | 93.78255 | 37639 ft | 493 kts | 240° |
| 2026-05-07 11:05 | 70.78921 | 93.60474 | 37639 ft | 493 kts | 240° |
| 2026-05-07 11:06 | 70.75298 | 93.42731 | 37640 ft | 493 kts | 240° |
| 2026-05-07 11:06 | 70.71670 | 93.25113 | 37639 ft | 494 kts | 239° |
| 2026-05-07 11:07 | 70.68014 | 93.07510 | 37640 ft | 493 kts | 239° |
| 2026-05-07 11:07 | 70.64385 | 92.90185 | 37640 ft | 487 kts | 239° |
| 2026-05-07 11:08 | 70.60744 | 92.72938 | 37641 ft | 487 kts | 239° |
| 2026-05-07 11:08 | 70.57100 | 92.55814 | 37641 ft | 487 kts | 239° |
| 2026-05-07 11:09 | 70.53440 | 92.38757 | 37642 ft | 487 kts | 239° |
| 2026-05-07 11:09 | 70.49744 | 92.21664 | 37641 ft | 487 kts | 238° |
| 2026-05-07 11:10 | 70.46056 | 92.04748 | 37618 ft | 481 kts | 239° |
| 2026-05-07 11:10 | 70.42420 | 91.88202 | 37621 ft | 477 kts | 239° |
| 2026-05-07 11:11 | 70.38760 | 91.71666 | 37621 ft | 478 kts | 239° |
| 2026-05-07 11:11 | 70.35064 | 91.55098 | 37621 ft | 478 kts | 239° |
| 2026-05-07 11:12 | 70.31390 | 91.38753 | 37622 ft | 478 kts | 239° |
| 2026-05-07 11:12 | 70.27658 | 91.22282 | 37622 ft | 478 kts | 238° |
| 2026-05-07 11:13 | 70.23947 | 91.06027 | 37622 ft | 475 kts | 238° |
| 2026-05-07 11:13 | 70.20264 | 90.90015 | 37622 ft | 472 kts | 238° |
| 2026-05-07 11:14 | 70.16541 | 90.73949 | 37622 ft | 472 kts | 238° |
| 2026-05-07 11:14 | 70.12826 | 90.58031 | 37622 ft | 472 kts | 238° |
| 2026-05-07 11:15 | 70.09092 | 90.42152 | 37622 ft | 472 kts | 238° |
| 2026-05-07 11:15 | 70.05366 | 90.26426 | 37623 ft | 473 kts | 237° |
| 2026-05-07 11:16 | 70.01585 | 90.10585 | 37622 ft | 472 kts | 237° |
| 2026-05-07 11:16 | 69.97819 | 89.94915 | 37622 ft | 472 kts | 237° |
| 2026-05-07 11:17 | 69.94011 | 89.79191 | 37623 ft | 473 kts | 237° |
| 2026-05-07 11:17 | 69.90223 | 89.63663 | 37623 ft | 472 kts | 237° |
| 2026-05-07 11:18 | 69.86407 | 89.48131 | 37618 ft | 472 kts | 237° |
| 2026-05-07 11:18 | 69.82563 | 89.32595 | 37618 ft | 473 kts | 236° |
| 2026-05-07 11:19 | 69.78711 | 89.17139 | 37619 ft | 473 kts | 236° |
| 2026-05-07 11:19 | 69.74837 | 89.01707 | 37619 ft | 473 kts | 236° |
| 2026-05-07 11:20 | 69.70969 | 88.86410 | 37619 ft | 468 kts | 236° |
| 2026-05-07 11:20 | 69.67117 | 88.71284 | 37620 ft | 466 kts | 235° |
| 2026-05-07 11:21 | 69.63274 | 88.56290 | 37619 ft | 467 kts | 235° |
| 2026-05-07 11:21 | 69.59408 | 88.41318 | 37620 ft | 467 kts | 235° |
| 2026-05-07 11:22 | 69.55534 | 88.26416 | 37620 ft | 467 kts | 234° |
| 2026-05-07 11:22 | 69.51657 | 88.11536 | 37620 ft | 466 kts | 235° |
| 2026-05-07 11:23 | 69.47790 | 87.96624 | 37620 ft | 466 kts | 235° |
| 2026-05-07 11:23 | 69.43923 | 87.81815 | 37620 ft | 466 kts | 235° |
| 2026-05-07 11:24 | 69.40054 | 87.67091 | 37620 ft | 466 kts | 235° |
| 2026-05-07 11:24 | 69.36150 | 87.52340 | 37620 ft | 466 kts | 235° |
| 2026-05-07 11:25 | 69.32233 | 87.37637 | 37620 ft | 466 kts | 235° |
| 2026-05-07 11:25 | 69.27932 | 87.23949 | 37623 ft | 468 kts | 225° |
| 2026-05-07 11:26 | 69.23261 | 87.11208 | 37621 ft | 468 kts | 225° |
| 2026-05-07 11:26 | 69.18565 | 86.98498 | 37621 ft | 467 kts | 225° |
| 2026-05-07 11:27 | 69.13873 | 86.85884 | 37621 ft | 466 kts | 225° |
| 2026-05-07 11:27 | 69.09177 | 86.73335 | 37621 ft | 466 kts | 225° |
| 2026-05-07 11:28 | 69.04485 | 86.60877 | 37621 ft | 466 kts | 225° |
| 2026-05-07 11:28 | 68.99773 | 86.48445 | 37621 ft | 466 kts | 225° |
| 2026-05-07 11:29 | 68.95061 | 86.35944 | 37621 ft | 466 kts | 225° |
| 2026-05-07 11:29 | 68.90363 | 86.23538 | 37621 ft | 466 kts | 224° |
| 2026-05-07 11:30 | 68.85654 | 86.11187 | 37619 ft | 466 kts | 224° |
| 2026-05-07 11:30 | 68.80943 | 85.98907 | 37620 ft | 466 kts | 224° |
| 2026-05-07 11:31 | 68.76215 | 85.86657 | 37620 ft | 466 kts | 224° |
| 2026-05-07 11:31 | 68.71464 | 85.74423 | 37620 ft | 466 kts | 224° |
| 2026-05-07 11:32 | 68.64328 | 85.56192 | 37620 ft | 466 kts | 224° |
| 2026-05-07 11:33 | 68.59574 | 85.44137 | 37620 ft | 466 kts | 224° |
| 2026-05-07 11:33 | 68.54813 | 85.32137 | 37620 ft | 466 kts | 223° |
| 2026-05-07 11:34 | 68.50050 | 85.20206 | 37620 ft | 466 kts | 223° |
| 2026-05-07 11:34 | 68.45263 | 85.08285 | 37620 ft | 464 kts | 223° |
| 2026-05-07 11:35 | 68.40497 | 84.96487 | 37620 ft | 463 kts | 223° |
| 2026-05-07 11:35 | 68.35725 | 84.84746 | 37620 ft | 462 kts | 223° |
| 2026-05-07 11:36 | 68.30940 | 84.73040 | 37620 ft | 462 kts | 223° |
| 2026-05-07 11:36 | 68.26161 | 84.61417 | 37620 ft | 463 kts | 223° |
| 2026-05-07 11:37 | 68.21358 | 84.49805 | 37620 ft | 462 kts | 223° |
| 2026-05-07 11:37 | 68.16574 | 84.38308 | 37620 ft | 462 kts | 223° |
| 2026-05-07 11:38 | 68.11757 | 84.26798 | 37621 ft | 463 kts | 222° |
| 2026-05-07 11:38 | 68.06943 | 84.15365 | 37620 ft | 462 kts | 222° |
| 2026-05-07 11:39 | 68.02120 | 84.03973 | 37620 ft | 462 kts | 222° |
| 2026-05-07 11:39 | 67.97303 | 83.92661 | 37620 ft | 462 kts | 222° |
| 2026-05-07 11:40 | 67.92487 | 83.81419 | 37620 ft | 462 kts | 222° |
| 2026-05-07 11:40 | 67.87669 | 83.70235 | 37620 ft | 462 kts | 222° |
| 2026-05-07 11:41 | 67.82808 | 83.59015 | 37620 ft | 462 kts | 222° |
| 2026-05-07 11:41 | 67.77946 | 83.47858 | 37620 ft | 462 kts | 222° |
| 2026-05-07 11:42 | 67.73101 | 83.36803 | 37620 ft | 462 kts | 222° |
| 2026-05-07 11:42 | 67.68227 | 83.25746 | 37620 ft | 462 kts | 221° |
| 2026-05-07 11:43 | 67.63359 | 83.14764 | 37620 ft | 462 kts | 221° |
| 2026-05-07 11:43 | 67.58465 | 83.03784 | 37620 ft | 462 kts | 221° |
| 2026-05-07 11:44 | 67.53593 | 82.92917 | 37620 ft | 458 kts | 221° |
| 2026-05-07 11:44 | 67.48762 | 82.82201 | 37620 ft | 452 kts | 221° |
| 2026-05-07 11:45 | 67.43973 | 82.71635 | 37621 ft | 452 kts | 220° |
| 2026-05-07 11:45 | 67.39169 | 82.61095 | 37620 ft | 452 kts | 220° |
| 2026-05-07 11:46 | 67.34380 | 82.50645 | 37619 ft | 451 kts | 220° |
| 2026-05-07 11:46 | 67.29561 | 82.40185 | 37619 ft | 452 kts | 220° |
| 2026-05-07 11:47 | 67.24743 | 82.29785 | 37620 ft | 452 kts | 219° |
| 2026-05-07 11:47 | 67.19883 | 82.19352 | 37620 ft | 452 kts | 219° |
| 2026-05-07 11:48 | 67.15057 | 82.09047 | 37620 ft | 451 kts | 220° |
| 2026-05-07 11:48 | 67.10217 | 81.98719 | 37619 ft | 452 kts | 220° |
| 2026-05-07 11:49 | 67.05403 | 81.88377 | 37619 ft | 451 kts | 220° |
| 2026-05-07 11:49 | 67.00581 | 81.78078 | 37618 ft | 452 kts | 220° |
| 2026-05-07 11:50 | 66.95748 | 81.67814 | 37618 ft | 451 kts | 220° |
| 2026-05-07 11:50 | 66.90929 | 81.57634 | 37618 ft | 451 kts | 220° |
| 2026-05-07 11:51 | 66.86089 | 81.47469 | 37621 ft | 451 kts | 220° |
| 2026-05-07 11:51 | 66.81219 | 81.37292 | 37621 ft | 452 kts | 220° |
| 2026-05-07 11:52 | 66.76387 | 81.27250 | 37622 ft | 452 kts | 219° |
| 2026-05-07 11:52 | 66.71512 | 81.17172 | 37621 ft | 451 kts | 219° |
| 2026-05-07 11:53 | 66.66638 | 81.07148 | 37621 ft | 451 kts | 219° |
| 2026-05-07 11:53 | 66.61810 | 80.97270 | 37620 ft | 448 kts | 219° |
| 2026-05-07 11:54 | 66.56969 | 80.87417 | 37621 ft | 446 kts | 219° |
| 2026-05-07 11:54 | 66.52135 | 80.77630 | 37710 ft | 445 kts | 219° |
| 2026-05-07 11:55 | 66.47327 | 80.67944 | 37810 ft | 446 kts | 219° |
| 2026-05-07 11:55 | 66.42473 | 80.58216 | 37849 ft | 445 kts | 219° |
| 2026-05-07 11:56 | 66.37616 | 80.48532 | 37850 ft | 445 kts | 219° |
| 2026-05-07 11:56 | 66.32775 | 80.38929 | 37849 ft | 445 kts | 219° |
| 2026-05-07 11:57 | 66.27940 | 80.29386 | 37850 ft | 445 kts | 218° |
| 2026-05-07 11:57 | 66.23071 | 80.19825 | 37850 ft | 445 kts | 218° |
| 2026-05-07 11:58 | 66.18223 | 80.10352 | 37850 ft | 445 kts | 218° |
| 2026-05-07 11:58 | 66.13359 | 80.00897 | 37849 ft | 445 kts | 218° |
| 2026-05-07 11:59 | 66.08479 | 79.91458 | 37848 ft | 446 kts | 218° |
| 2026-05-07 11:59 | 66.03593 | 79.82053 | 37848 ft | 445 kts | 218° |
| 2026-05-07 12:00 | 65.98696 | 79.72677 | 37848 ft | 445 kts | 218° |
| 2026-05-07 12:00 | 65.93806 | 79.63358 | 37847 ft | 445 kts | 218° |
| 2026-05-07 12:01 | 65.88914 | 79.54082 | 37850 ft | 445 kts | 218° |
| 2026-05-07 12:01 | 65.84026 | 79.44860 | 37852 ft | 445 kts | 218° |
| 2026-05-07 12:02 | 65.79116 | 79.35644 | 37852 ft | 445 kts | 218° |
| 2026-05-07 12:02 | 65.74220 | 79.26498 | 37853 ft | 446 kts | 217° |
| 2026-05-07 12:03 | 65.69272 | 79.17299 | 37852 ft | 445 kts | 217° |
| 2026-05-07 12:03 | 65.64381 | 79.08252 | 37852 ft | 443 kts | 217° |
| 2026-05-07 12:04 | 65.59476 | 78.99222 | 37852 ft | 442 kts | 217° |
| 2026-05-07 12:04 | 65.54573 | 78.90241 | 37851 ft | 442 kts | 216° |
| 2026-05-07 12:05 | 65.49670 | 78.81303 | 37851 ft | 442 kts | 216° |
| 2026-05-07 12:05 | 65.44797 | 78.72462 | 37850 ft | 442 kts | 216° |
| 2026-05-07 12:06 | 65.39873 | 78.63570 | 37850 ft | 441 kts | 216° |
| 2026-05-07 12:06 | 65.34948 | 78.54720 | 37849 ft | 441 kts | 216° |
| 2026-05-07 12:07 | 65.30022 | 78.45912 | 37849 ft | 441 kts | 216° |
| 2026-05-07 12:07 | 65.25105 | 78.37158 | 37849 ft | 442 kts | 216° |
| 2026-05-07 12:08 | 65.20207 | 78.28464 | 37849 ft | 442 kts | 216° |
| 2026-05-07 12:08 | 65.15273 | 78.19655 | 37849 ft | 442 kts | 216° |
| 2026-05-07 12:09 | 65.10384 | 78.10967 | 37848 ft | 442 kts | 216° |
| 2026-05-07 12:09 | 65.05460 | 78.02263 | 37848 ft | 442 kts | 216° |
| 2026-05-07 12:10 | 65.00787 | 77.94038 | 37847 ft | 441 kts | 216° |
| 2026-05-07 12:10 | 64.95916 | 77.85509 | 37901 ft | 452 kts | 216° |
| 2026-05-07 12:10 | 64.93412 | 77.81139 | 38158 ft | 453 kts | 216° |
| 2026-05-07 12:11 | 64.90934 | 77.76836 | 38549 ft | 450 kts | 214° |
| 2026-05-07 12:11 | 64.88509 | 77.72977 | 38889 ft | 448 kts | 213° |
| 2026-05-07 12:11 | 64.85928 | 77.68988 | 39162 ft | 448 kts | 213° |
| 2026-05-07 12:11 | 64.83339 | 77.64992 | 39395 ft | 448 kts | 213° |
| 2026-05-07 12:12 | 64.80729 | 77.60961 | 39623 ft | 449 kts | 213° |
| 2026-05-07 12:12 | 64.78115 | 77.56928 | 39832 ft | 449 kts | 213° |
| 2026-05-07 12:12 | 64.75539 | 77.52955 | 39968 ft | 450 kts | 213° |
| 2026-05-07 12:13 | 64.70288 | 77.44874 | 39978 ft | 450 kts | 213° |
| 2026-05-07 12:13 | 64.65119 | 77.36948 | 39977 ft | 449 kts | 213° |
| 2026-05-07 12:14 | 64.60341 | 77.29639 | 39979 ft | 449 kts | 212° |
| 2026-05-07 12:14 | 64.55267 | 77.21896 | 39977 ft | 449 kts | 212° |
| 2026-05-07 12:15 | 64.50159 | 77.14134 | 39977 ft | 449 kts | 212° |
| 2026-05-07 12:15 | 64.45061 | 77.06424 | 39976 ft | 449 kts | 212° |
| 2026-05-07 12:16 | 64.40075 | 76.98914 | 39976 ft | 448 kts | 212° |
| 2026-05-07 12:16 | 64.35315 | 76.91777 | 39976 ft | 445 kts | 212° |
| 2026-05-07 12:17 | 64.30217 | 76.84165 | 39975 ft | 443 kts | 212° |
| 2026-05-07 12:17 | 64.25025 | 76.76448 | 39974 ft | 442 kts | 211° |
| 2026-05-07 12:18 | 64.19983 | 76.68988 | 39974 ft | 443 kts | 211° |
| 2026-05-07 12:18 | 64.14989 | 76.61631 | 39973 ft | 442 kts | 211° |
| 2026-05-07 12:19 | 64.10013 | 76.54333 | 39973 ft | 443 kts | 211° |
| 2026-05-07 12:19 | 64.05238 | 76.47360 | 39972 ft | 442 kts | 211° |
| 2026-05-07 12:20 | 64.00265 | 76.40126 | 39971 ft | 442 kts | 211° |
| 2026-05-07 12:20 | 63.95136 | 76.32698 | 39972 ft | 442 kts | 211° |
| 2026-05-07 12:21 | 63.89916 | 76.25172 | 39971 ft | 442 kts | 211° |
| 2026-05-07 12:21 | 63.84692 | 76.17673 | 39981 ft | 442 kts | 210° |
| 2026-05-07 12:22 | 63.79567 | 76.10472 | 39982 ft | 445 kts | 210° |
| 2026-05-07 12:22 | 63.74230 | 76.03026 | 39981 ft | 452 kts | 210° |
| 2026-05-07 12:23 | 63.68873 | 75.95580 | 39980 ft | 458 kts | 210° |
| 2026-05-07 12:23 | 63.63398 | 75.88001 | 39979 ft | 462 kts | 210° |
| 2026-05-07 12:24 | 63.57908 | 75.80435 | 39978 ft | 465 kts | 210° |
| 2026-05-07 12:24 | 63.52410 | 75.72883 | 39977 ft | 467 kts | 210° |
| 2026-05-07 12:25 | 63.46846 | 75.65268 | 39976 ft | 467 kts | 210° |
| 2026-05-07 12:25 | 63.41283 | 75.57687 | 39976 ft | 468 kts | 210° |
| 2026-05-07 12:26 | 63.35750 | 75.50185 | 39975 ft | 468 kts | 210° |
| 2026-05-07 12:26 | 63.30188 | 75.42677 | 39975 ft | 468 kts | 210° |
| 2026-05-07 12:27 | 63.24613 | 75.35185 | 39974 ft | 468 kts | 210° |
| 2026-05-07 12:27 | 63.19047 | 75.27728 | 39986 ft | 468 kts | 211° |
| 2026-05-07 12:28 | 63.13791 | 75.19250 | 40009 ft | 468 kts | 215° |
| 2026-05-07 12:28 | 63.08599 | 75.10609 | 40031 ft | 468 kts | 215° |
| 2026-05-07 12:29 | 63.03395 | 75.01997 | 40035 ft | 468 kts | 215° |
| 2026-05-07 12:29 | 62.98146 | 74.93358 | 40034 ft | 468 kts | 215° |
| 2026-05-07 12:30 | 62.92950 | 74.84847 | 40033 ft | 468 kts | 215° |
| 2026-05-07 12:30 | 62.87748 | 74.76368 | 40042 ft | 467 kts | 215° |
| 2026-05-07 12:31 | 62.82494 | 74.67843 | 40042 ft | 468 kts | 215° |
| 2026-05-07 12:31 | 62.77265 | 74.59393 | 40041 ft | 468 kts | 216° |
| 2026-05-07 12:32 | 62.72024 | 74.50963 | 40041 ft | 468 kts | 216° |
| 2026-05-07 12:32 | 62.66793 | 74.42587 | 40040 ft | 468 kts | 216° |
| 2026-05-07 12:33 | 62.58920 | 74.30051 | 40040 ft | 468 kts | 214° |
| 2026-05-07 12:33 | 62.53660 | 74.21721 | 40040 ft | 468 kts | 214° |
| 2026-05-07 12:34 | 62.48391 | 74.13393 | 40039 ft | 468 kts | 214° |
| 2026-05-07 12:34 | 62.43120 | 74.05095 | 40038 ft | 468 kts | 214° |
| 2026-05-07 12:35 | 62.37882 | 73.96884 | 40038 ft | 468 kts | 214° |
| 2026-05-07 12:35 | 62.32610 | 73.88657 | 40037 ft | 468 kts | 214° |
| 2026-05-07 12:36 | 62.27321 | 73.80442 | 40037 ft | 468 kts | 214° |
| 2026-05-07 12:36 | 62.22062 | 73.72308 | 40036 ft | 468 kts | 214° |
| 2026-05-07 12:37 | 62.16803 | 73.64211 | 40035 ft | 468 kts | 214° |
| 2026-05-07 12:37 | 62.11541 | 73.55987 | 40035 ft | 468 kts | 216° |
| 2026-05-07 12:38 | 62.06327 | 73.47677 | 40034 ft | 468 kts | 216° |
| 2026-05-07 12:38 | 62.01096 | 73.39387 | 40033 ft | 468 kts | 216° |
| 2026-05-07 12:39 | 61.95883 | 73.31171 | 40034 ft | 467 kts | 215° |
| 2026-05-07 12:39 | 61.90630 | 73.22945 | 40034 ft | 467 kts | 215° |
| 2026-05-07 12:40 | 61.85405 | 73.14800 | 40043 ft | 467 kts | 215° |
| 2026-05-07 12:40 | 61.80149 | 73.06642 | 40043 ft | 466 kts | 215° |
| 2026-05-07 12:41 | 61.74935 | 72.98586 | 40042 ft | 465 kts | 215° |
| 2026-05-07 12:41 | 61.69709 | 72.90546 | 40041 ft | 463 kts | 214° |
| 2026-05-07 12:42 | 61.64539 | 72.82626 | 40040 ft | 463 kts | 214° |
| 2026-05-07 12:42 | 61.59335 | 72.74687 | 40040 ft | 462 kts | 214° |
| 2026-05-07 12:43 | 61.54126 | 72.66773 | 40039 ft | 462 kts | 214° |
| 2026-05-07 12:43 | 61.48933 | 72.58918 | 40038 ft | 462 kts | 214° |
| 2026-05-07 12:44 | 61.43734 | 72.51087 | 40037 ft | 462 kts | 214° |
| 2026-05-07 12:44 | 61.38543 | 72.43301 | 40037 ft | 462 kts | 214° |
| 2026-05-07 12:45 | 61.33320 | 72.35500 | 40036 ft | 462 kts | 214° |
| 2026-05-07 12:45 | 61.28116 | 72.27759 | 40037 ft | 461 kts | 214° |
| 2026-05-07 12:46 | 61.22911 | 72.20049 | 40036 ft | 461 kts | 214° |
| 2026-05-07 12:46 | 61.17683 | 72.12337 | 40036 ft | 461 kts | 214° |
| 2026-05-07 12:47 | 61.12468 | 72.04676 | 40035 ft | 461 kts | 214° |
| 2026-05-07 12:47 | 61.07231 | 71.97000 | 40034 ft | 461 kts | 214° |
| 2026-05-07 12:48 | 61.02008 | 71.89372 | 40033 ft | 461 kts | 214° |
| 2026-05-07 12:48 | 60.96903 | 71.81452 | 40035 ft | 462 kts | 218° |
| 2026-05-07 12:49 | 60.91976 | 71.72885 | 40032 ft | 462 kts | 218° |
| 2026-05-07 12:49 | 60.87071 | 71.64449 | 40042 ft | 462 kts | 218° |
| 2026-05-07 12:50 | 60.82138 | 71.56037 | 40042 ft | 463 kts | 218° |
| 2026-05-07 12:50 | 60.77204 | 71.47629 | 40042 ft | 463 kts | 218° |
| 2026-05-07 12:51 | 60.72288 | 71.39294 | 40050 ft | 463 kts | 218° |
| 2026-05-07 12:51 | 60.67382 | 71.31020 | 40074 ft | 462 kts | 217° |
| 2026-05-07 12:52 | 60.62403 | 71.22660 | 40102 ft | 462 kts | 217° |
| 2026-05-07 12:52 | 60.57467 | 71.14410 | 40103 ft | 462 kts | 217° |
| 2026-05-07 12:53 | 60.52478 | 71.06104 | 40102 ft | 462 kts | 217° |
| 2026-05-07 12:53 | 60.47529 | 70.97899 | 40101 ft | 462 kts | 217° |
| 2026-05-07 12:54 | 60.42571 | 70.89713 | 40101 ft | 462 kts | 217° |
| 2026-05-07 12:54 | 60.37568 | 70.81487 | 40100 ft | 462 kts | 217° |
| 2026-05-07 12:55 | 60.32612 | 70.73371 | 40099 ft | 462 kts | 217° |
| 2026-05-07 12:55 | 60.27622 | 70.65234 | 40098 ft | 462 kts | 217° |
| 2026-05-07 12:56 | 60.22631 | 70.57127 | 40098 ft | 462 kts | 217° |
| 2026-05-07 12:56 | 60.17627 | 70.49031 | 40097 ft | 461 kts | 217° |
| 2026-05-07 12:57 | 60.12631 | 70.40981 | 40096 ft | 461 kts | 217° |
| 2026-05-07 12:57 | 60.07622 | 70.32942 | 40096 ft | 461 kts | 216° |
| 2026-05-07 12:58 | 60.02615 | 70.24939 | 40096 ft | 461 kts | 216° |
| 2026-05-07 12:58 | 59.97609 | 70.16970 | 40095 ft | 461 kts | 216° |
| 2026-05-07 12:59 | 59.92618 | 70.09055 | 40094 ft | 461 kts | 216° |
| 2026-05-07 12:59 | 59.87633 | 70.01181 | 40106 ft | 461 kts | 216° |
| 2026-05-07 13:00 | 59.82587 | 69.93244 | 40106 ft | 462 kts | 216° |
| 2026-05-07 13:00 | 59.77554 | 69.85356 | 40105 ft | 462 kts | 216° |
| 2026-05-07 13:01 | 59.72549 | 69.77545 | 40104 ft | 462 kts | 216° |
| 2026-05-07 13:01 | 59.67485 | 69.69671 | 40104 ft | 462 kts | 216° |
| 2026-05-07 13:02 | 59.62443 | 69.61863 | 40103 ft | 462 kts | 216° |
| 2026-05-07 13:02 | 59.57397 | 69.54079 | 40102 ft | 462 kts | 216° |
| 2026-05-07 13:03 | 59.52340 | 69.46302 | 40101 ft | 462 kts | 216° |
| 2026-05-07 13:03 | 59.47285 | 69.38554 | 40101 ft | 462 kts | 216° |
| 2026-05-07 13:04 | 59.42197 | 69.30788 | 40101 ft | 462 kts | 215° |
| 2026-05-07 13:04 | 59.37201 | 69.23190 | 40100 ft | 462 kts | 215° |
| 2026-05-07 13:05 | 59.32291 | 69.15752 | 40099 ft | 461 kts | 215° |
| 2026-05-07 13:05 | 59.27416 | 69.08395 | 40099 ft | 462 kts | 215° |
| 2026-05-07 13:06 | 59.22434 | 69.00903 | 40098 ft | 462 kts | 215° |
| 2026-05-07 13:06 | 59.17410 | 68.93374 | 40079 ft | 445 kts | 215° |
| 2026-05-07 13:07 | 59.12849 | 68.85647 | 39824 ft | 434 kts | 221° |
| 2026-05-07 13:07 | 59.10698 | 68.81491 | 39331 ft | 436 kts | 221° |
| 2026-05-07 13:07 | 59.08532 | 68.77312 | 38802 ft | 439 kts | 221° |
| 2026-05-07 13:08 | 59.06367 | 68.73145 | 38354 ft | 440 kts | 221° |
| 2026-05-07 13:08 | 59.04191 | 68.68965 | 37976 ft | 439 kts | 221° |
| 2026-05-07 13:08 | 59.02024 | 68.64812 | 37636 ft | 438 kts | 222° |
| 2026-05-07 13:08 | 58.99882 | 68.60717 | 37340 ft | 435 kts | 222° |
| 2026-05-07 13:09 | 58.97721 | 68.56593 | 37024 ft | 433 kts | 223° |
| 2026-05-07 13:09 | 58.95686 | 68.52718 | 36716 ft | 432 kts | 223° |
| 2026-05-07 13:09 | 58.93532 | 68.48623 | 36387 ft | 430 kts | 223° |
| 2026-05-07 13:09 | 58.91452 | 68.44679 | 36035 ft | 429 kts | 224° |
| 2026-05-07 13:10 | 58.89604 | 68.41179 | 35699 ft | 429 kts | 224° |
| 2026-05-07 13:10 | 58.87336 | 68.36892 | 35297 ft | 428 kts | 224° |
| 2026-05-07 13:10 | 58.85220 | 68.32900 | 34916 ft | 428 kts | 224° |
| 2026-05-07 13:10 | 58.83082 | 68.28873 | 34501 ft | 428 kts | 224° |
| 2026-05-07 13:11 | 58.80964 | 68.24891 | 34059 ft | 430 kts | 224° |
| 2026-05-07 13:11 | 58.78803 | 68.20837 | 33593 ft | 431 kts | 224° |
| 2026-05-07 13:11 | 58.76672 | 68.16845 | 33131 ft | 432 kts | 224° |
| 2026-05-07 13:11 | 58.74524 | 68.12829 | 32658 ft | 434 kts | 224° |
| 2026-05-07 13:12 | 58.72438 | 68.08936 | 32199 ft | 436 kts | 224° |
| 2026-05-07 13:12 | 58.70338 | 68.05022 | 31726 ft | 437 kts | 224° |
| 2026-05-07 13:12 | 58.68314 | 68.01260 | 31289 ft | 439 kts | 224° |
| 2026-05-07 13:12 | 58.66092 | 67.97134 | 30814 ft | 440 kts | 224° |
| 2026-05-07 13:13 | 58.63884 | 67.93044 | 30444 ft | 439 kts | 224° |
| 2026-05-07 13:13 | 58.61723 | 67.89047 | 30173 ft | 436 kts | 224° |
| 2026-05-07 13:13 | 58.59539 | 67.85014 | 29878 ft | 434 kts | 224° |
| 2026-05-07 13:13 | 58.57454 | 67.81171 | 29560 ft | 432 kts | 224° |
| 2026-05-07 13:14 | 58.55362 | 67.77322 | 29240 ft | 431 kts | 224° |
| 2026-05-07 13:14 | 58.53198 | 67.73348 | 28930 ft | 430 kts | 224° |
| 2026-05-07 13:14 | 58.51177 | 67.69643 | 28646 ft | 428 kts | 224° |
| 2026-05-07 13:14 | 58.49057 | 67.65764 | 28336 ft | 427 kts | 224° |
| 2026-05-07 13:15 | 58.47054 | 67.62104 | 28063 ft | 425 kts | 224° |
| 2026-05-07 13:15 | 58.44959 | 67.58284 | 27789 ft | 424 kts | 224° |
| 2026-05-07 13:15 | 58.42895 | 67.54526 | 27519 ft | 422 kts | 224° |
| 2026-05-07 13:15 | 58.40910 | 67.50917 | 27261 ft | 421 kts | 224° |
| 2026-05-07 13:16 | 58.38944 | 67.47349 | 27007 ft | 419 kts | 224° |
| 2026-05-07 13:16 | 58.36846 | 67.43548 | 26742 ft | 418 kts | 224° |
| 2026-05-07 13:16 | 58.34716 | 67.39696 | 26481 ft | 416 kts | 224° |
| 2026-05-07 13:16 | 58.32582 | 67.35843 | 26219 ft | 415 kts | 224° |
| 2026-05-07 13:17 | 58.30487 | 67.32068 | 25979 ft | 414 kts | 223° |
| 2026-05-07 13:17 | 58.28418 | 67.28346 | 25751 ft | 412 kts | 223° |
| 2026-05-07 13:17 | 58.26328 | 67.24591 | 25523 ft | 411 kts | 223° |
| 2026-05-07 13:17 | 58.24273 | 67.20906 | 25297 ft | 410 kts | 223° |
| 2026-05-07 13:18 | 58.22314 | 67.17400 | 25090 ft | 408 kts | 223° |
| 2026-05-07 13:18 | 58.20315 | 67.13827 | 24894 ft | 407 kts | 223° |
| 2026-05-07 13:18 | 58.18324 | 67.10274 | 24704 ft | 406 kts | 223° |
| 2026-05-07 13:18 | 58.16303 | 67.06674 | 24481 ft | 402 kts | 223° |
| 2026-05-07 13:19 | 58.14323 | 67.03153 | 23969 ft | 404 kts | 223° |
| 2026-05-07 13:19 | 58.12333 | 66.99618 | 23359 ft | 397 kts | 224° |
| 2026-05-07 13:19 | 58.10415 | 66.96218 | 22761 ft | 391 kts | 224° |
| 2026-05-07 13:19 | 58.08487 | 66.92806 | 22151 ft | 385 kts | 224° |
| 2026-05-07 13:20 | 58.06548 | 66.89380 | 21529 ft | 379 kts | 224° |
| 2026-05-07 13:20 | 58.04650 | 66.86030 | 20909 ft | 373 kts | 224° |
| 2026-05-07 13:20 | 58.02792 | 66.82745 | 20292 ft | 367 kts | 224° |
| 2026-05-07 13:20 | 58.01002 | 66.79584 | 19689 ft | 362 kts | 224° |
| 2026-05-07 13:21 | 57.99203 | 66.76410 | 18991 ft | 360 kts | 224° |
| 2026-05-07 13:21 | 57.97434 | 66.73294 | 18263 ft | 358 kts | 224° |
| 2026-05-07 13:21 | 57.95660 | 66.70174 | 17525 ft | 356 kts | 224° |
| 2026-05-07 13:21 | 57.93897 | 66.67079 | 16788 ft | 353 kts | 224° |
| 2026-05-07 13:22 | 57.92107 | 66.63940 | 16034 ft | 350 kts | 224° |
| 2026-05-07 13:22 | 57.90366 | 66.60891 | 15295 ft | 347 kts | 224° |
| 2026-05-07 13:22 | 57.88710 | 66.57996 | 14592 ft | 344 kts | 224° |
| 2026-05-07 13:22 | 57.86964 | 66.54948 | 13847 ft | 341 kts | 224° |
| 2026-05-07 13:23 | 57.85305 | 66.52055 | 13132 ft | 338 kts | 224° |
| 2026-05-07 13:23 | 57.83618 | 66.49116 | 12399 ft | 334 kts | 224° |
| 2026-05-07 13:23 | 57.81957 | 66.46228 | 11671 ft | 331 kts | 224° |
| 2026-05-07 13:23 | 57.80321 | 66.43387 | 10946 ft | 328 kts | 224° |
| 2026-05-07 13:24 | 57.78713 | 66.40598 | 10556 ft | 315 kts | 224° |
| 2026-05-07 13:24 | 57.77166 | 66.37922 | 10302 ft | 300 kts | 225° |
| 2026-05-07 13:24 | 57.75724 | 66.35427 | 10133 ft | 285 kts | 225° |
| 2026-05-07 13:24 | 57.74327 | 66.33012 | 10041 ft | 269 kts | 224° |
| 2026-05-07 13:25 | 57.73004 | 66.30727 | 9831 ft | 261 kts | 224° |
| 2026-05-07 13:25 | 57.71701 | 66.28477 | 9413 ft | 261 kts | 225° |
| 2026-05-07 13:25 | 57.70365 | 66.26175 | 8968 ft | 262 kts | 225° |
| 2026-05-07 13:25 | 57.69059 | 66.23925 | 8562 ft | 261 kts | 225° |
| 2026-05-07 13:26 | 57.67762 | 66.21694 | 8160 ft | 261 kts | 225° |
| 2026-05-07 13:26 | 57.66434 | 66.19415 | 7753 ft | 260 kts | 226° |
| 2026-05-07 13:26 | 57.65165 | 66.17132 | 7356 ft | 260 kts | 227° |
| 2026-05-07 13:26 | 57.63890 | 66.14807 | 6962 ft | 259 kts | 227° |
| 2026-05-07 13:27 | 57.62620 | 66.12507 | 6576 ft | 259 kts | 227° |
| 2026-05-07 13:27 | 57.61351 | 66.10219 | 6194 ft | 259 kts | 227° |
| 2026-05-07 13:27 | 57.60072 | 66.07916 | 5906 ft | 255 kts | 227° |
| 2026-05-07 13:27 | 57.58810 | 66.05646 | 5873 ft | 259 kts | 227° |
| 2026-05-07 13:28 | 57.57531 | 66.03348 | 5868 ft | 259 kts | 227° |
| 2026-05-07 13:28 | 57.56265 | 66.01076 | 5868 ft | 259 kts | 227° |
| 2026-05-07 13:28 | 57.54993 | 65.98797 | 5868 ft | 259 kts | 227° |
| 2026-05-07 13:28 | 57.53720 | 65.96516 | 5868 ft | 259 kts | 227° |
| 2026-05-07 13:29 | 57.52468 | 65.94277 | 5867 ft | 259 kts | 227° |
| 2026-05-07 13:29 | 57.51195 | 65.92002 | 5867 ft | 259 kts | 227° |
| 2026-05-07 13:29 | 57.49844 | 65.89793 | 5862 ft | 262 kts | 216° |
| 2026-05-07 13:29 | 57.48167 | 65.88613 | 5828 ft | 262 kts | 195° |
| 2026-05-07 13:30 | 57.46375 | 65.88076 | 5363 ft | 267 kts | 191° |
| 2026-05-07 13:30 | 57.44544 | 65.87666 | 4968 ft | 268 kts | 190° |
| 2026-05-07 13:30 | 57.42717 | 65.87265 | 4875 ft | 265 kts | 190° |
| 2026-05-07 13:30 | 57.40886 | 65.86855 | 4866 ft | 267 kts | 190° |
| 2026-05-07 13:31 | 57.39073 | 65.86448 | 4866 ft | 267 kts | 190° |
| 2026-05-07 13:31 | 57.37222 | 65.86032 | 4866 ft | 267 kts | 190° |
| 2026-05-07 13:31 | 57.35405 | 65.85623 | 4866 ft | 267 kts | 190° |
| 2026-05-07 13:31 | 57.33552 | 65.85207 | 4866 ft | 267 kts | 190° |
| 2026-05-07 13:32 | 57.31717 | 65.84795 | 4866 ft | 267 kts | 190° |
| 2026-05-07 13:32 | 57.29935 | 65.84396 | 4866 ft | 267 kts | 190° |
| 2026-05-07 13:32 | 57.28105 | 65.83987 | 4866 ft | 267 kts | 190° |
| 2026-05-07 13:32 | 57.26255 | 65.83573 | 4866 ft | 267 kts | 190° |
| 2026-05-07 13:33 | 57.24406 | 65.83160 | 4866 ft | 267 kts | 190° |
| 2026-05-07 13:33 | 57.22570 | 65.82750 | 4866 ft | 267 kts | 190° |
| 2026-05-07 13:33 | 57.20768 | 65.82348 | 4866 ft | 267 kts | 190° |
| 2026-05-07 13:33 | 57.18946 | 65.81943 | 4866 ft | 267 kts | 190° |
| 2026-05-07 13:34 | 57.17130 | 65.81538 | 4866 ft | 267 kts | 190° |
| 2026-05-07 13:34 | 57.13541 | 65.80744 | 4864 ft | 252 kts | 190° |
| 2026-05-07 13:34 | 57.11852 | 65.80369 | 4864 ft | 247 kts | 190° |
| 2026-05-07 13:35 | 57.10170 | 65.79995 | 4866 ft | 246 kts | 190° |
| 2026-05-07 13:35 | 57.08511 | 65.79623 | 4865 ft | 245 kts | 192° |
| 2026-05-07 13:35 | 57.06957 | 65.78657 | 4859 ft | 239 kts | 216° |
| 2026-05-07 13:35 | 57.05739 | 65.76719 | 4667 ft | 234 kts | 229° |
| 2026-05-07 13:36 | 57.04656 | 65.74557 | 4348 ft | 236 kts | 232° |
| 2026-05-07 13:36 | 57.03584 | 65.72324 | 4102 ft | 234 kts | 232° |
| 2026-05-07 13:36 | 57.02535 | 65.70129 | 4007 ft | 232 kts | 232° |
| 2026-05-07 13:36 | 57.01489 | 65.67943 | 3996 ft | 229 kts | 232° |
| 2026-05-07 13:37 | 57.00474 | 65.65771 | 3993 ft | 222 kts | 239° |
| 2026-05-07 13:37 | 56.99875 | 65.63277 | 3985 ft | 214 kts | 262° |
| 2026-05-07 13:37 | 56.99755 | 65.60633 | 3778 ft | 212 kts | 270° |
| 2026-05-07 13:37 | 56.99726 | 65.57964 | 3582 ft | 212 kts | 272° |
| 2026-05-07 13:38 | 56.99720 | 65.55596 | 3410 ft | 211 kts | 272° |
| 2026-05-07 13:38 | 56.99718 | 65.52648 | 3194 ft | 211 kts | 272° |
| 2026-05-07 13:38 | 56.99715 | 65.50051 | 3028 ft | 210 kts | 272° |
| 2026-05-07 13:38 | 56.99712 | 65.47582 | 3002 ft | 210 kts | 272° |
| 2026-05-07 13:39 | 56.99708 | 65.44879 | 2997 ft | 211 kts | 272° |
| 2026-05-07 13:39 | 56.99703 | 65.42211 | 2993 ft | 205 kts | 272° |
| 2026-05-07 13:39 | 56.99697 | 65.39714 | 2993 ft | 197 kts | 272° |
| 2026-05-07 13:39 | 56.99692 | 65.37287 | 2997 ft | 190 kts | 272° |
| 2026-05-07 13:40 | 56.99687 | 65.34971 | 2996 ft | 182 kts | 272° |
| 2026-05-07 13:40 | 56.99681 | 65.32780 | 2995 ft | 173 kts | 272° |
| 2026-05-07 13:40 | 56.99676 | 65.30659 | 2996 ft | 169 kts | 272° |
| 2026-05-07 13:40 | 56.99670 | 65.28562 | 2997 ft | 167 kts | 272° |
| 2026-05-07 13:41 | 56.99664 | 65.26468 | 2998 ft | 167 kts | 272° |
| 2026-05-07 13:41 | 56.99657 | 65.24346 | 2998 ft | 167 kts | 272° |
| 2026-05-07 13:41 | 56.99717 | 65.22261 | 2996 ft | 166 kts | 283° |
| 2026-05-07 13:41 | 57.00108 | 65.20319 | 2993 ft | 164 kts | 301° |
| 2026-05-07 13:42 | 57.00822 | 65.18690 | 2902 ft | 167 kts | 316° |
| 2026-05-07 13:42 | 57.01686 | 65.17263 | 2665 ft | 168 kts | 318° |
| 2026-05-07 13:42 | 57.02558 | 65.15815 | 2416 ft | 169 kts | 317° |
| 2026-05-07 13:42 | 57.03399 | 65.14410 | 2223 ft | 156 kts | 318° |
| 2026-05-07 13:43 | 57.04225 | 65.13024 | 2204 ft | 165 kts | 318° |
| 2026-05-07 13:43 | 57.05030 | 65.11676 | 2193 ft | 152 kts | 318° |
| 2026-05-07 13:43 | 57.05811 | 65.10430 | 2191 ft | 146 kts | 327° |
| 2026-05-07 13:43 | 57.06749 | 65.09840 | 2190 ft | 144 kts | 354° |
| 2026-05-07 13:44 | 57.07741 | 65.10140 | 2196 ft | 146 kts | 16° |
| 2026-05-07 13:44 | 57.08592 | 65.11208 | 2034 ft | 153 kts | 43° |
| 2026-05-07 13:44 | 57.09278 | 65.12682 | 1789 ft | 151 kts | 44° |
| 2026-05-07 13:44 | 57.09978 | 65.14105 | 1553 ft | 147 kts | 43° |
| 2026-05-07 13:45 | 57.10644 | 65.15437 | 1497 ft | 137 kts | 43° |
| 2026-05-07 13:45 | 57.11281 | 65.16716 | 1495 ft | 134 kts | 43° |
| 2026-05-07 13:45 | 57.11908 | 65.17977 | 1496 ft | 134 kts | 43° |
| 2026-05-07 13:45 | 57.12536 | 65.19245 | 1497 ft | 134 kts | 43° |
| 2026-05-07 13:46 | 57.13172 | 65.20527 | 1366 ft | 134 kts | 43° |
| 2026-05-07 13:46 | 57.13799 | 65.21794 | 1210 ft | 133 kts | 43° |
| 2026-05-07 13:46 | 57.14425 | 65.23058 | 1052 ft | 133 kts | 43° |
| 2026-05-07 13:46 | 57.15046 | 65.24313 | 895 ft | 132 kts | 43° |
| 2026-05-07 13:47 | 57.15655 | 65.25546 | 734 ft | 132 kts | 44° |
| 2026-05-07 13:47 | 57.16267 | 65.26816 | 578 ft | 131 kts | 43° |
| 2026-05-07 13:47 | 57.16880 | 65.28040 | 430 ft | 130 kts | 43° |
| 2026-05-07 13:47 | 57.17480 | 65.29233 | 378 ft | 117 kts | 44° |
| 2026-05-07 13:48 | 57.17944 | 65.30172 | 366 ft | 80 kts | 47° |
| 2026-05-07 13:48 | 57.18236 | 65.30764 | 358 ft | 45 kts | 47° |
| 2026-05-07 13:48 | 57.18370 | 65.31037 | 355 ft | 19 kts | 47° |
| 2026-05-07 13:48 | 57.18467 | 65.31233 | 352 ft | 21 kts | 47° |
| 2026-05-07 13:49 | 57.18574 | 65.31452 | 348 ft | 24 kts | 47° |
| 2026-05-07 13:49 | 57.18668 | 65.31641 | 343 ft | 12 kts | 47° |
| 2026-05-07 13:49 | 57.18686 | 65.31811 | 339 ft | 16 kts | 134° |
| 2026-05-07 13:49 | 57.18625 | 65.31913 | 340 ft | 8 kts | 137° |
| 2026-05-07 13:50 | 57.18610 | 65.31938 | 340 ft | 2 kts | 137° |
| 2026-05-07 13:50 | 57.18595 | 65.31964 | 340 ft | 0 kts | 134° |
| 2026-05-07 13:50 | 57.18594 | 65.31970 | 340 ft | 0 kts | 109° |
| 2026-05-07 13:50 | 57.18594 | 65.31982 | 340 ft | 2 kts | 80° |
| 2026-05-07 13:51 | 57.18613 | 65.32068 | 337 ft | 12 kts | 54° |
| 2026-05-07 13:51 | 57.18664 | 65.32179 | 334 ft | 13 kts | 48° |
| 2026-05-07 13:51 | 57.18716 | 65.32284 | 331 ft | 13 kts | 47° |
| 2026-05-07 13:51 | 57.18777 | 65.32409 | 326 ft | 14 kts | 48° |
| 2026-05-07 13:52 | 57.18836 | 65.32539 | 323 ft | 13 kts | 68° |
| 2026-05-07 13:52 | 57.18797 | 65.32713 | 322 ft | 16 kts | 134° |
| 2026-05-07 13:52 | 57.18713 | 65.32868 | 323 ft | 17 kts | 135° |
| 2026-05-07 13:52 | 57.18624 | 65.33034 | 325 ft | 18 kts | 134° |
| 2026-05-07 13:53 | 57.18565 | 65.33196 | 326 ft | 15 kts | 84° |
| 2026-05-07 13:53 | 57.18609 | 65.33351 | 322 ft | 14 kts | 65° |
| 2026-05-07 13:53 | 57.18619 | 65.33540 | 321 ft | 13 kts | 93° |
| 2026-05-07 13:53 | 57.18567 | 65.33694 | 321 ft | 15 kts | 135° |
| 2026-05-07 13:54 | 57.18494 | 65.33828 | 324 ft | 7 kts | 135° |
| 2026-05-07 13:54 | 57.18453 | 65.33905 | 325 ft | 8 kts | 135° |
| 2026-05-07 13:54 | 57.18406 | 65.33991 | 327 ft | 9 kts | 134° |
| 2026-05-07 13:54 | 57.18356 | 65.34085 | 329 ft | 10 kts | 134° |
| 2026-05-07 13:55 | 57.18300 | 65.34188 | 331 ft | 12 kts | 134° |
| 2026-05-07 13:55 | 57.18240 | 65.34300 | 332 ft | 4 kts | 135° |
| 2026-05-07 13:55 | 57.18239 | 65.34301 | 332 ft | 0 kts | 135° |
| 2026-05-07 13:56 | 57.18236 | 65.34306 | 332 ft | 1 kts | 134° |
| 2026-05-07 13:56 | 57.18221 | 65.34335 | 332 ft | 4 kts | 134° |
| 2026-05-07 13:56 | 57.18195 | 65.34392 | 333 ft | 5 kts | 111° |
| 2026-05-07 13:56 | 57.18193 | 65.34412 | 333 ft | 2 kts | 85° |
| 2026-05-07 13:57 | 57.18212 | 65.34461 | 332 ft | 2 kts | 45° |
| 2026-05-07 13:57 | 57.18227 | 65.34487 | 332 ft | 6 kts | 41° |
| 2026-05-07 13:57 | 57.18230 | 65.34491 | 332 ft | 0 kts | 41° |
| 2026-05-07 13:58 | 57.18231 | 65.34493 | 332 ft | 0 kts | 45° |